FT501 / SU-TMI 7700 Squawk Report (12th of June, 2021)

Aircraft B738 Reg No. SU-TMI Age 16 years old
Model 737 Jet engines 2 First flight 03-11-04
Registered 05-09-17 Rollout 27-10-04 Delivered 17-11-04
Construction No. 33973 Line No. 1606 Series 85P
ADSHEX 0101CB Airline name FlyEgypt Owner Itochu Airlease
Airfield based Cairo-International~Cairo~SU First tracked N/A

Flight history for SU-TMI

Route Flight No Date Playback
???? N/A 2021-08-04 08:23:00
???? N/A 2021-08-04 06:10:00
???? N/A 2021-08-04 02:43:00
???? N/A 2021-08-03 16:57:00
???? N/A 2021-08-02 08:40:00
???? N/A 2021-08-02 04:56:00
???? N/A 2021-08-02 02:39:00
???? N/A 2021-08-01 17:57:00
???? N/A 2021-08-01 11:40:00
???? N/A 2021-08-01 04:28:00
???? N/A 2021-07-31 11:36:00
???? N/A 2021-07-31 07:25:00
???? N/A 2021-07-31 00:54:00
???? N/A 2021-07-30 15:12:00
???? N/A 2021-07-30 10:03:00
???? N/A 2021-07-29 20:41:00
???? N/A 2021-07-29 16:02:00
Queen Alia Intl (AMM) - Borg El Arab Intl (HBE) FT472 2021-07-29 13:43:00
Borg El Arab Intl (HBE) - Queen Alia Intl (AMM) FT471 2021-07-29 10:40:00
???? N/A 2021-07-29 07:52:00
Time Lat Lon Altitude Heading Speed Vertical Rate
2021-06-12 23:23:56 GMT 25.421814 55.990906 3,025 20 180 64
2021-06-12 23:23:40 GMT 25.410690 55.983936 3,025 33 182 0
2021-06-12 23:23:34 GMT 25.407513 55.979591 3,000 61 187 128
2021-06-12 23:23:24 GMT 25.403975 55.969952 3,000 74 191 64
2021-06-12 23:23:12 GMT 25.401508 55.959900 3,000 74 199 -64
2021-06-12 23:23:02 GMT 25.398788 55.949352 3,050 74 206 -640
2021-06-12 23:22:51 GMT 25.395641 55.937202 3,150 73 213 -576
2021-06-12 23:20:59 GMT 25.453833 55.822311 4,575 128 256 -1024
2021-06-12 23:20:58 GMT 25.454178 55.821838 4,900 128 257 -1152
2021-06-12 23:20:46 GMT 25.462463 55.810497 5,075 128 258 -1024
2021-06-12 23:19:46 GMT 25.492798 55.735714 5,400 99 290 -832
2021-06-12 23:19:45 GMT 25.493261 55.732864 5,400 99 290 -832
2021-06-12 23:19:03 GMT 25.502480 55.671558 5,825 99 290 -832
2021-06-12 23:18:51 GMT 25.504990 55.655163 6,025 99 290 -832
2021-06-12 23:18:48 GMT 25.505493 55.651600 6,025 99 290 -832
2021-06-12 23:18:47 GMT 25.506317 55.646259 6,075 99 290 -832
2021-06-12 23:18:45 GMT 25.506317 55.646259 6,075 99 290 -832
2021-06-12 23:18:43 GMT 25.506821 55.643055 6,100 99 290 -832
2021-06-12 23:18:42 GMT 25.507187 55.640667 6,125 99 291 -832
2021-06-12 23:18:32 GMT 25.509430 55.625610 6,325 99 294 -832
2021-06-12 23:18:26 GMT 25.510532 55.618130 6,350 99 294 -832
2021-06-12 23:18:21 GMT 25.511673 55.610554 6,425 99 295 -832
2021-06-12 23:18:19 GMT 25.512115 55.607559 6,450 99 295 -832
2021-06-12 23:18:18 GMT 25.512348 55.606056 6,450 99 296 -896
2021-06-12 23:18:17 GMT 25.512589 55.604450 6,475 99 297 -896
2021-06-12 23:18:16 GMT 25.513000 55.601704 6,500 99 298 -896
2021-06-12 23:18:14 GMT 25.513229 55.600178 6,525 99 298 -896
2021-06-12 23:18:13 GMT 25.513458 55.598705 6,525 99 298 -896
2021-06-12 23:18:11 GMT 25.513838 55.596210 6,550 99 298 -896
2021-06-12 23:18:10 GMT 25.514191 55.593922 6,575 99 299 -832
2021-06-12 23:18:08 GMT 25.514629 55.590923 6,600 99 299 -896
2021-06-12 23:18:07 GMT 25.514862 55.589420 6,625 99 299 -896
2021-06-12 23:18:06 GMT 25.515564 55.584614 6,675 99 300 -896
2021-06-12 23:18:04 GMT 25.515564 55.584614 6,675 99 301 -896
2021-06-12 23:18:02 GMT 25.515932 55.582062 6,700 99 301 -896
2021-06-12 23:17:58 GMT 25.516846 55.576122 6,750 99 303 -896
2021-06-12 23:17:56 GMT 25.517395 55.572460 6,800 99 303 -896
2021-06-12 23:17:55 GMT 25.517656 55.570766 6,800 99 304 -896
2021-06-12 23:17:54 GMT 25.517853 55.569458 6,825 99 306 -896
2021-06-12 23:17:53 GMT 25.518076 55.567863 6,850 99 306 -896
2021-06-12 23:17:52 GMT 25.518400 55.565788 6,850 99 306 -896
2021-06-12 23:17:50 GMT 25.518820 55.562836 6,900 99 307 -896
2021-06-12 23:17:49 GMT 25.519043 55.561371 6,900 99 307 -896
2021-06-12 23:17:48 GMT 25.519238 55.559933 6,925 99 308 -896
2021-06-12 23:17:47 GMT 25.519983 55.555218 6,975 99 310 -896
2021-06-12 23:17:45 GMT 25.519983 55.555218 6,975 99 310 -896
2021-06-12 23:17:43 GMT 25.520416 55.552063 7,000 99 310 -896
2021-06-12 23:17:42 GMT 25.520645 55.550640 7,000 99 310 -896
2021-06-12 23:17:40 GMT 25.521103 55.547436 7,050 99 311 -896
2021-06-12 23:17:39 GMT 25.521379 55.545837 7,050 99 312 -896
2021-06-12 23:17:37 GMT 25.521845 55.542469 7,100 99 313 -896
2021-06-12 23:17:36 GMT 25.522385 55.539093 7,125 99 314 -896
2021-06-12 23:17:34 GMT 25.522636 55.537338 7,150 99 314 -896
2021-06-12 23:17:33 GMT 25.522776 55.536461 7,150 99 315 -896
2021-06-12 23:17:30 GMT 25.523483 55.531719 7,200 99 317 -896
2021-06-12 23:17:29 GMT 25.523802 55.529514 7,225 99 317 -896
2021-06-12 23:17:28 GMT 25.524033 55.528065 7,225 99 317 -896
2021-06-12 23:17:26 GMT 25.524490 55.524952 7,250 99 318 -896
2021-06-12 23:17:23 GMT 25.524857 55.522358 7,275 99 318 -896
2021-06-12 23:17:22 GMT 25.525131 55.520630 7,300 99 319 -896
2021-06-12 23:17:21 GMT 25.526047 55.514477 7,350 99 321 -896
2021-06-12 23:17:19 GMT 25.526175 55.513500 7,375 99 323 -960
2021-06-12 23:17:16 GMT 25.526640 55.510185 7,400 99 323 -960
2021-06-12 23:17:15 GMT 25.526873 55.508579 7,425 99 323 -960
2021-06-12 23:17:13 GMT 25.527386 55.505054 7,450 99 324 -960
2021-06-12 23:17:12 GMT 25.527618 55.503605 7,475 99 325 -960
2021-06-12 23:17:11 GMT 25.527832 55.501965 7,475 99 326 -960
2021-06-12 23:17:10 GMT 25.528316 55.498783 7,525 99 326 -960
2021-06-12 23:17:07 GMT 25.528688 55.496246 7,550 99 327 -960
2021-06-12 23:17:06 GMT 25.529068 55.493725 7,575 99 328 -960
2021-06-12 23:17:04 GMT 25.529619 55.489819 7,600 99 329 -960
2021-06-12 23:17:03 GMT 25.529846 55.488232 7,625 99 329 -960
2021-06-12 23:17:01 GMT 25.530350 55.485027 7,650 99 330 -960
2021-06-12 23:16:59 GMT 25.530830 55.481579 7,675 99 332 -960
2021-06-12 23:16:58 GMT 25.531109 55.479816 7,700 99 332 -960
2021-06-12 23:16:56 GMT 25.531483 55.477070 7,725 99 333 -960
2021-06-12 23:16:55 GMT 25.531994 55.473652 7,750 99 335 -896
2021-06-12 23:16:53 GMT 25.532227 55.471905 7,775 99 335 -896
2021-06-12 23:16:52 GMT 25.532501 55.470325 7,800 99 335 -896
2021-06-12 23:16:51 GMT 25.532730 55.468700 7,800 99 336 -896
2021-06-12 23:16:49 GMT 25.533203 55.465305 7,825 99 337 -896
2021-06-12 23:16:47 GMT 25.533670 55.462456 7,850 99 338 -896
2021-06-12 23:16:46 GMT 25.534012 55.459900 7,875 99 339 -896
2021-06-12 23:16:42 GMT 25.535110 55.452625 7,950 99 342 -960
2021-06-12 23:16:40 GMT 25.535904 55.447170 8,000 99 344 -960
2021-06-12 23:16:38 GMT 25.536137 55.445717 8,000 99 344 -960
2021-06-12 23:16:36 GMT 25.536650 55.442245 8,050 99 345 -960
2021-06-12 23:16:34 GMT 25.537161 55.438671 8,075 99 347 -960
2021-06-12 23:16:32 GMT 25.537674 55.435028 8,100 99 348 -960
2021-06-12 23:16:31 GMT 25.538511 55.429497 8,150 99 349 -1024
2021-06-12 23:16:29 GMT 25.538511 55.429497 8,150 99 350 -1024
2021-06-12 23:16:28 GMT 25.538651 55.428459 8,150 99 350 -1024
2021-06-12 23:16:26 GMT 25.539442 55.423176 8,200 99 352 -1088
2021-06-12 23:16:23 GMT 25.539953 55.419598 8,250 99 354 -1024
2021-06-12 23:16:21 GMT 25.540792 55.414001 8,275 99 355 -1024
2021-06-12 23:16:20 GMT 25.540792 55.414001 8,300 99 355 -1024
2021-06-12 23:16:17 GMT 25.541677 55.408146 8,325 99 358 -960
2021-06-12 23:16:15 GMT 25.542421 55.403118 8,375 99 360 -896
2021-06-12 23:16:08 GMT 25.544678 55.388031 8,425 99 361 0
2021-06-12 23:16:06 GMT 25.544678 55.388031 8,425 99 361 0
2021-06-12 23:16:05 GMT 25.544952 55.386250 8,425 99 361 0
2021-06-12 23:16:01 GMT 25.546051 55.378620 8,425 99 361 0
2021-06-12 23:16:00 GMT 25.546331 55.376900 8,425 99 361 -64
2021-06-12 23:15:57 GMT 25.547123 55.371456 8,425 99 361 -64
2021-06-12 23:15:55 GMT 25.547516 55.368755 8,425 99 361 -64
2021-06-12 23:15:54 GMT 25.547699 55.367737 8,425 99 360 0
2021-06-12 23:15:52 GMT 25.548101 55.364925 8,425 99 360 0
2021-06-12 23:15:50 GMT 25.548798 55.360157 8,425 99 360 0
2021-06-12 23:15:49 GMT 25.549210 55.357513 8,425 99 360 0
2021-06-12 23:15:47 GMT 25.549942 55.352428 8,425 99 360 0
2021-06-12 23:15:45 GMT 25.550196 55.350727 8,425 99 360 0
2021-06-12 23:15:44 GMT 25.550583 55.348103 8,425 99 360 64
2021-06-12 23:15:43 GMT 25.550846 55.346375 8,425 99 360 64
2021-06-12 23:15:42 GMT 25.551081 55.344666 8,425 99 360 64
2021-06-12 23:15:39 GMT 25.551910 55.338848 8,425 99 360 64
2021-06-12 23:15:37 GMT 25.552896 55.332073 8,425 99 360 64
2021-06-12 23:15:35 GMT 25.552896 55.332073 8,425 99 360 64
2021-06-12 23:15:34 GMT 25.553192 55.330250 8,425 99 360 64
2021-06-12 23:15:32 GMT 25.553741 55.326435 8,425 99 360 0
2021-06-12 23:15:31 GMT 25.554016 55.324352 8,425 99 360 0
2021-06-12 23:15:30 GMT 25.554571 55.320671 8,425 99 360 0
2021-06-12 23:15:28 GMT 25.554852 55.318752 8,425 99 360 0
2021-06-12 23:15:26 GMT 25.555828 55.312069 8,425 99 360 0
2021-06-12 23:15:24 GMT 25.555828 55.312069 8,425 99 360 0
2021-06-12 23:15:23 GMT 25.556213 55.309399 8,425 99 360 0
2021-06-12 23:15:22 GMT 25.556717 55.305988 8,425 99 360 0
2021-06-12 23:15:20 GMT 25.556992 55.304211 8,425 99 360 0
2021-06-12 23:15:19 GMT 25.557220 55.302532 8,425 99 360 0
2021-06-12 23:15:18 GMT 25.557449 55.300854 8,425 99 360 0
2021-06-12 23:15:17 GMT 25.557816 55.298462 8,425 99 360 -64
2021-06-12 23:15:14 GMT 25.558435 55.294292 8,425 99 360 -64
2021-06-12 23:15:13 GMT 25.558868 55.291393 8,425 99 360 -64
2021-06-12 23:15:12 GMT 25.559921 55.284222 8,425 99 359 0
2021-06-12 23:15:09 GMT 25.559921 55.284222 8,425 99 359 0
2021-06-12 23:15:07 GMT 25.560287 55.281677 8,425 99 359 0
2021-06-12 23:15:06 GMT 25.560810 55.278385 8,425 99 359 0
2021-06-12 23:15:05 GMT 25.561111 55.276287 8,425 99 359 0
2021-06-12 23:15:03 GMT 25.561602 55.272888 8,425 99 359 0
2021-06-12 23:15:01 GMT 25.562164 55.269115 8,425 99 359 0
2021-06-12 23:15:00 GMT 25.562487 55.267139 8,425 99 359 0
2021-06-12 23:14:58 GMT 25.562943 55.263927 8,425 99 359 0
2021-06-12 23:14:56 GMT 25.563354 55.261078 8,425 99 359 0
2021-06-12 23:14:55 GMT 25.563742 55.258430 8,425 99 359 0
2021-06-12 23:14:54 GMT 25.564041 55.256500 8,425 99 359 0
2021-06-12 23:14:52 GMT 25.564581 55.252937 8,425 99 359 0
2021-06-12 23:14:48 GMT 25.566055 55.242920 8,425 99 358 -64
2021-06-12 23:14:45 GMT 25.566055 55.242920 8,425 99 358 -64
2021-06-12 23:14:42 GMT 25.567062 55.236156 8,425 99 358 -64
2021-06-12 23:14:40 GMT 25.567474 55.233459 8,425 99 358 -64
2021-06-12 23:14:39 GMT 25.567841 55.230663 8,425 99 358 0
2021-06-12 23:14:29 GMT 25.570494 55.212517 8,425 99 358 64
2021-06-12 23:14:21 GMT 25.572960 55.195415 8,425 98 358 0
2021-06-12 23:14:18 GMT 25.573380 55.192463 8,425 98 358 0
2021-06-12 23:14:17 GMT 25.573658 55.190647 8,425 98 358 0
2021-06-12 23:14:14 GMT 25.574478 55.184681 8,425 98 358 0
2021-06-12 23:14:12 GMT 25.575027 55.181122 8,425 98 358 0
2021-06-12 23:14:09 GMT 25.575846 55.175205 8,425 98 358 64
2021-06-12 23:14:00 GMT 25.578314 55.157845 8,425 98 358 0
2021-06-12 23:13:48 GMT 25.581060 55.138775 8,425 98 359 0
2021-06-12 23:13:38 GMT 25.583771 55.119427 8,425 98 359 0
2021-06-12 23:12:55 GMT 25.594746 55.040779 8,425 98 355 0
2021-06-12 23:12:35 GMT 25.599728 55.006004 8,425 99 354 -64
2021-06-12 23:12:25 GMT 25.602659 54.986313 8,425 99 354 0
2021-06-12 23:12:08 GMT 25.607071 54.957630 8,425 99 354 -64
2021-06-12 23:12:04 GMT 25.608479 54.948948 8,450 100 347 -64
2021-06-12 23:11:52 GMT 25.611649 54.929859 8,450 100 336 0
2021-06-12 23:11:51 GMT 25.611969 54.927979 8,450 100 336 0
2021-06-12 23:11:49 GMT 25.613228 54.920601 8,450 100 330 64
2021-06-12 23:11:46 GMT 25.613228 54.920601 8,450 100 330 64
2021-06-12 23:11:45 GMT 25.613663 54.917957 8,450 100 330 64
2021-06-12 23:11:44 GMT 25.615089 54.909100 8,450 100 327 64
2021-06-12 23:11:40 GMT 25.615089 54.909100 8,450 99 324 0
2021-06-12 23:11:39 GMT 25.615311 54.907532 8,450 99 322 0
2021-06-12 23:11:37 GMT 25.615696 54.905159 8,450 99 321 0
2021-06-12 23:11:36 GMT 25.615927 54.903500 8,450 98 319 0
2021-06-12 23:11:35 GMT 25.616253 54.901222 8,450 98 318 0
2021-06-12 23:11:34 GMT 25.616501 54.899395 8,450 98 316 0
2021-06-12 23:11:30 GMT 25.617277 54.892982 8,450 96 310 0
2021-06-12 23:11:29 GMT 25.617416 54.891323 8,450 96 309 -64
2021-06-12 23:11:28 GMT 25.617599 54.889629 8,450 96 306 0
2021-06-12 23:11:23 GMT 25.618378 54.881947 8,450 94 295 64
2021-06-12 23:11:22 GMT 25.618767 54.877277 8,450 94 295 64
2021-06-12 23:11:20 GMT 25.618767 54.877277 8,450 94 295 64
2021-06-12 23:11:18 GMT 25.618908 54.875671 8,450 94 295 64
2021-06-12 23:11:17 GMT 25.619110 54.872742 8,450 94 292 64
2021-06-12 23:11:14 GMT 25.619371 54.868778 8,450 93 289 64
2021-06-12 23:11:10 GMT 25.620071 54.853107 8,425 92 283 0
2021-06-12 23:11:03 GMT 25.620071 54.853107 8,425 92 282 0
2021-06-12 23:11:02 GMT 25.620165 54.851574 8,425 93 281 0
2021-06-12 23:10:58 GMT 25.620438 54.845734 8,425 93 281 0
2021-06-12 23:10:55 GMT 25.620667 54.841156 8,425 93 280 0
2021-06-12 23:10:54 GMT 25.620770 54.839863 8,425 94 280 -64
2021-06-12 23:10:53 GMT 25.620861 54.838516 8,425 94 280 -64
2021-06-12 23:10:51 GMT 25.621141 54.834942 8,425 95 280 0
2021-06-12 23:10:14 GMT 25.628683 54.784050 8,425 99 278 64
2021-06-12 23:10:10 GMT 25.629566 54.778557 8,425 100 279 64
2021-06-12 23:10:09 GMT 25.629801 54.777107 8,425 100 279 0
2021-06-12 23:10:06 GMT 25.630405 54.773323 8,425 100 279 0
2021-06-12 23:10:05 GMT 25.630692 54.771320 8,425 100 279 -64
2021-06-12 23:10:02 GMT 25.631424 54.767151 8,425 100 280 0
2021-06-12 23:09:56 GMT 25.632843 54.758503 8,425 100 281 0
2021-06-12 23:09:54 GMT 25.633291 54.755756 8,425 100 281 0
2021-06-12 23:09:52 GMT 25.633804 54.752552 8,425 100 281 0
2021-06-12 23:09:51 GMT 25.634125 54.750519 8,425 99 282 0
2021-06-12 23:09:50 GMT 25.634409 54.748966 8,425 99 282 0
2021-06-12 23:09:49 GMT 25.634874 54.746063 8,425 99 282 64
2021-06-12 23:09:46 GMT 25.635086 54.744720 8,425 99 282 64
2021-06-12 23:09:45 GMT 25.635315 54.743195 8,425 99 282 64
2021-06-12 23:09:44 GMT 25.635527 54.741867 8,425 99 282 64
2021-06-12 23:09:42 GMT 25.636086 54.738396 8,425 99 283 128
2021-06-12 23:09:40 GMT 25.636505 54.735668 8,425 99 283 128
2021-06-12 23:09:39 GMT 25.636690 54.734406 8,425 99 283 128
2021-06-12 23:09:36 GMT 25.637375 54.730022 8,400 99 284 128
2021-06-12 23:09:35 GMT 25.637604 54.728497 8,400 99 284 128
2021-06-12 23:09:34 GMT 25.637854 54.726944 8,400 99 285 128
2021-06-12 23:09:33 GMT 25.638336 54.724121 8,400 100 286 128
2021-06-12 23:09:31 GMT 25.638552 54.722694 8,400 100 286 128
2021-06-12 23:09:30 GMT 25.638830 54.721035 8,400 100 287 192
2021-06-12 23:09:29 GMT 25.639069 54.719494 8,400 100 287 192
2021-06-12 23:09:28 GMT 25.639297 54.718067 8,400 100 287 192
2021-06-12 23:09:26 GMT 25.639763 54.715076 8,400 100 287 128
2021-06-12 23:09:24 GMT 25.640167 54.712727 8,400 100 287 128
2021-06-12 23:09:22 GMT 25.640717 54.709270 8,400 100 288 64
2021-06-12 23:09:21 GMT 25.640945 54.707844 8,400 100 288 64
2021-06-12 23:09:19 GMT 25.641392 54.705231 8,400 100 288 0
2021-06-12 23:09:17 GMT 25.641996 54.701599 8,425 100 288 -64
2021-06-12 23:09:16 GMT 25.642229 54.700203 8,425 100 288 -128
2021-06-12 23:09:14 GMT 25.642548 54.698132 8,425 99 288 -320
2021-06-12 23:09:11 GMT 25.643143 54.694317 8,450 99 288 -448
2021-06-12 23:09:10 GMT 25.643417 54.692791 8,475 100 287 -640
2021-06-12 23:09:08 GMT 25.643738 54.690552 8,500 100 287 -704
2021-06-12 23:09:07 GMT 25.643967 54.689129 8,500 100 287 -768
2021-06-12 23:09:06 GMT 25.644608 54.685162 8,550 100 286 -896
2021-06-12 23:09:05 GMT 25.644608 54.685162 8,550 100 286 -896
2021-06-12 23:09:03 GMT 25.645163 54.681858 8,600 100 286 -1024
2021-06-12 23:09:00 GMT 25.645889 54.677380 8,650 100 285 -1472
2021-06-12 23:08:58 GMT 25.646347 54.674377 8,700 99 285 -2048
2021-06-12 23:08:57 GMT 25.647125 54.669495 8,800 99 285 -2176
2021-06-12 23:08:55 GMT 25.647125 54.669495 8,825 99 284 -2240
2021-06-12 23:08:54 GMT 25.647350 54.668022 8,875 99 284 -2176
2021-06-12 23:08:52 GMT 25.647770 54.665119 8,950 99 284 -2176
2021-06-12 23:08:50 GMT 25.648132 54.662933 9,000 99 282 -2176
2021-06-12 23:08:48 GMT 25.648453 54.660694 9,050 99 282 -2240
2021-06-12 23:08:46 GMT 25.648865 54.658001 9,125 99 282 -2304
2021-06-12 23:08:44 GMT 25.649323 54.654999 9,200 99 281 -2304
2021-06-12 23:06:31 GMT 25.681379 54.449432 10,425 99 320 0
2021-06-12 23:06:23 GMT 25.683382 54.436737 10,425 99 320 -64
2021-06-12 23:06:15 GMT 25.685669 54.421894 10,425 99 320 -64
2021-06-12 23:06:00 GMT 25.689102 54.399822 10,425 99 320 0
2021-06-12 23:05:34 GMT 25.695557 54.358368 10,425 109 323 0
2021-06-12 23:02:13 GMT 25.792967 54.029518 10,425 109 320 0
2021-06-12 23:02:05 GMT 25.792967 54.029518 10,425 109 321 0
2021-06-12 23:02:02 GMT 25.798458 54.012520 10,425 109 321 0
2021-06-12 23:01:54 GMT 25.798458 54.012520 10,425 109 322 0
2021-06-12 23:01:48 GMT 25.801579 54.002983 10,425 109 322 0
2021-06-12 23:01:46 GMT 25.802536 54.000092 10,425 109 322 0
2021-06-12 23:01:10 GMT 25.820984 53.943584 10,425 109 326 -64
2021-06-12 23:01:06 GMT 25.823503 53.935772 10,425 109 325 64
2021-06-12 23:01:03 GMT 25.825041 53.931057 10,425 109 323 0
2021-06-12 23:00:56 GMT 25.828066 53.921574 10,450 109 290 0
2021-06-12 22:59:06 GMT 25.878296 53.763817 10,425 109 296 0
2021-06-12 22:59:04 GMT 25.879166 53.760975 10,425 109 296 0
2021-06-12 22:58:55 GMT 25.883137 53.748657 10,400 109 300 0
2021-06-12 22:58:54 GMT 25.883926 53.746155 10,400 109 303 -64
2021-06-12 22:58:51 GMT 25.885324 53.741791 10,400 109 322 -64
2021-06-12 22:58:49 GMT 25.886255 53.738831 10,400 109 322 -64
2021-06-12 22:58:48 GMT 25.886768 53.737301 10,400 109 322 -64
2021-06-12 22:58:43 GMT 25.889145 53.729935 10,400 109 322 -64
2021-06-12 22:58:35 GMT 25.892727 53.719025 10,400 109 322 -64
2021-06-12 22:58:32 GMT 25.894272 53.714283 10,400 109 326 0
2021-06-12 22:58:22 GMT 25.899628 53.697857 10,375 109 340 128
2021-06-12 22:58:20 GMT 25.900681 53.694641 10,375 109 342 128
2021-06-12 22:58:19 GMT 25.901230 53.693035 10,375 109 344 128
2021-06-12 22:58:12 GMT 25.905855 53.677193 10,375 104 358 0
2021-06-12 22:58:10 GMT 25.905855 53.677193 10,375 104 358 0
2021-06-12 22:58:09 GMT 25.906275 53.675396 10,375 103 359 0
2021-06-12 22:58:07 GMT 25.907089 53.671268 10,375 101 363 128
2021-06-12 22:58:05 GMT 25.907776 53.667229 10,400 99 369 -384
2021-06-12 22:58:01 GMT 25.908928 53.659710 10,425 99 376 -1088
2021-06-12 22:57:58 GMT 25.909765 53.654270 10,450 99 376 -1088
2021-06-12 22:57:31 GMT 25.917755 53.601879 11,375 99 394 -3584
2021-06-12 22:57:27 GMT 25.918900 53.594212 11,625 99 394 -3584
2021-06-12 22:57:26 GMT 25.919312 53.591412 11,700 99 396 -3520
2021-06-12 22:57:16 GMT 25.922104 53.573273 12,250 99 400 -4480
2021-06-12 22:57:13 GMT 25.923065 53.566898 12,500 99 400 -4480
2021-06-12 22:57:11 GMT 25.923546 53.563843 12,600 99 400 -4480
2021-06-12 22:57:10 GMT 25.923964 53.560780 12,700 99 400 -4608
2021-06-12 22:57:07 GMT 25.924850 53.555084 12,925 99 400 -4736
2021-06-12 22:57:05 GMT 25.925400 53.551353 13,075 99 401 -4352
2021-06-12 22:57:03 GMT 25.926086 53.546585 13,250 99 401 -4352
2021-06-12 22:57:02 GMT 25.926361 53.544670 13,325 99 401 -4352
2021-06-12 22:56:57 GMT 25.927917 53.534306 13,675 102 402 -4800
2021-06-12 22:56:54 GMT 25.928833 53.528294 13,900 102 402 -4800
2021-06-12 22:56:51 GMT 25.929886 53.522179 14,100 102 402 -4800
2021-06-12 22:56:47 GMT 25.931690 53.512978 14,475 102 402 -4800
2021-06-12 22:56:45 GMT 25.932343 53.509968 14,575 103 403 -4608
2021-06-12 22:56:44 GMT 25.932953 53.507095 14,700 104 402 -5056
2021-06-12 22:56:42 GMT 25.933786 53.503471 14,825 104 402 -5056
2021-06-12 22:56:40 GMT 25.934509 53.500412 14,950 104 402 -5056
2021-06-12 22:56:39 GMT 25.935013 53.498390 15,050 106 400 -5376
2021-06-12 22:56:38 GMT 25.935608 53.496113 15,150 106 400 -5376
2021-06-12 22:56:37 GMT 25.936157 53.493984 15,225 106 401 -5440
2021-06-12 22:56:36 GMT 25.937092 53.490635 15,400 107 401 -5248
2021-06-12 22:56:35 GMT 25.937603 53.488682 15,475 108 402 -4224
2021-06-12 22:56:33 GMT 25.938492 53.485641 15,575 108 402 -4224
2021-06-12 22:56:30 GMT 25.940350 53.479385 15,800 108 403 -3520
2021-06-12 22:56:29 GMT 25.940918 53.477558 15,850 109 405 -3328
2021-06-12 22:56:28 GMT 25.941513 53.475529 15,900 109 406 -2944
2021-06-12 22:56:26 GMT 25.942886 53.471340 16,000 109 407 -2624
2021-06-12 22:56:20 GMT 25.948380 53.455585 16,325 112 416 -3072
2021-06-12 22:56:17 GMT 25.948380 53.455585 16,325 112 416 -3072
2021-06-12 22:56:15 GMT 25.950218 53.450653 16,475 112 417 -3392
2021-06-12 22:56:13 GMT 25.951309 53.447659 16,550 112 421 -2816
2021-06-12 22:55:54 GMT 25.966047 53.408081 17,450 112 439 -4672
2021-06-12 22:55:52 GMT 25.968048 53.402641 17,675 112 439 -5184
2021-06-12 22:55:51 GMT 25.968887 53.400421 17,750 112 439 -5184
2021-06-12 22:55:48 GMT 25.971867 53.392551 18,075 112 439 -5184
2021-06-12 22:55:47 GMT 25.971867 53.392551 18,075 112 439 -5120
2021-06-12 22:55:46 GMT 25.972704 53.390282 18,175 112 440 -5120
2021-06-12 22:55:44 GMT 25.974564 53.385368 18,375 112 439 -5184
2021-06-12 22:55:41 GMT 25.976847 53.379295 18,625 112 439 -5184
2021-06-12 22:55:39 GMT 25.979736 53.371788 18,950 112 439 -5440
2021-06-12 22:55:36 GMT 25.980524 53.369682 19,050 112 438 -5440
2021-06-12 22:55:35 GMT 25.981316 53.367622 19,125 112 438 -5440
2021-06-12 22:55:34 GMT 25.982208 53.365364 19,225 112 438 -5440
2021-06-12 22:55:33 GMT 25.985086 53.357849 19,550 113 439 -5504
2021-06-12 22:55:30 GMT 25.985086 53.357849 19,550 113 438 -5632
2021-06-12 22:55:29 GMT 25.986298 53.354626 19,700 113 438 -5632
2021-06-12 22:55:26 GMT 25.988892 53.347900 20,000 113 437 -5696
2021-06-12 22:55:24 GMT 25.989853 53.345516 20,150 113 437 -5696
2021-06-12 22:55:23 GMT 25.990534 53.343693 20,400 113 436 -5696
2021-06-12 22:55:20 GMT 25.993149 53.336964 20,475 113 436 -5376
2021-06-12 22:55:18 GMT 25.994722 53.333023 20,650 113 437 -5120
2021-06-12 22:55:17 GMT 25.996399 53.328674 20,825 113 438 -4480
2021-06-12 22:55:14 GMT 25.998047 53.324474 20,950 113 438 -4160
2021-06-12 22:55:13 GMT 25.998819 53.322514 21,025 113 440 -3776
2021-06-12 22:55:11 GMT 26.000290 53.318775 21,125 113 443 -3072
2021-06-12 22:55:10 GMT 26.001146 53.316597 21,175 113 444 -2624
2021-06-12 22:55:09 GMT 26.001892 53.314682 21,225 113 445 -2496
2021-06-12 22:55:07 GMT 26.003660 53.310261 21,300 113 446 -2240
2021-06-12 22:55:05 GMT 26.005478 53.305664 21,400 113 449 -2368
2021-06-12 22:55:02 GMT 26.007757 53.299908 21,525 113 452 -3648
2021-06-12 22:55:00 GMT 26.009434 53.295788 21,650 113 452 -3968
2021-06-12 22:54:58 GMT 26.011435 53.290714 21,825 113 453 -4736
2021-06-12 22:54:55 GMT 26.013977 53.284416 22,050 113 454 -4480
2021-06-12 22:54:54 GMT 26.014847 53.282188 22,125 113 455 -4352
2021-06-12 22:54:52 GMT 26.016266 53.278717 22,250 113 456 -3968
2021-06-12 22:54:51 GMT 26.017441 53.275768 22,325 113 457 -3712
2021-06-12 22:54:50 GMT 26.018417 53.273338 22,400 113 458 -3584
2021-06-12 22:54:49 GMT 26.019379 53.270943 22,475 114 459 -3456
2021-06-12 22:54:46 GMT 26.021988 53.264465 22,650 113 461 -3264
2021-06-12 22:54:43 GMT 26.025558 53.255447 22,875 113 467 -2944
2021-06-12 22:54:40 GMT 26.027344 53.250938 22,975 113 468 -2880
2021-06-12 22:54:39 GMT 26.029037 53.246742 23,075 113 470 -3008
2021-06-12 22:54:37 GMT 26.029953 53.244411 23,125 113 471 -3136
2021-06-12 22:54:36 GMT 26.030777 53.242287 23,200 113 472 -3840
2021-06-12 22:54:34 GMT 26.032516 53.237827 23,325 113 473 -3968
2021-06-12 22:54:32 GMT 26.034060 53.233883 23,450 113 474 -4480
2021-06-12 22:54:27 GMT 26.038437 53.222370 23,875 112 472 -5824
2021-06-12 22:54:26 GMT 26.040625 53.216400 24,150 111 471 -6208
2021-06-12 22:54:23 GMT 26.041763 53.213215 24,300 110 470 -6208
2021-06-12 22:54:22 GMT 26.043417 53.208477 24,525 110 469 -5952
2021-06-12 22:54:19 GMT 26.044674 53.204937 24,675 110 469 -5952
2021-06-12 22:54:18 GMT 26.045418 53.202721 24,775 110 469 -5888
2021-06-12 22:54:17 GMT 26.046661 53.198753 24,950 109 469 -5504
2021-06-12 22:54:14 GMT 26.047838 53.195221 25,100 109 469 -5376
2021-06-12 22:54:13 GMT 26.048584 53.192844 25,175 109 469 -5184
2021-06-12 22:54:12 GMT 26.049656 53.189621 25,300 109 470 -4672
2021-06-12 22:54:10 GMT 26.051193 53.184765 25,450 109 471 -4224
2021-06-12 22:54:09 GMT 26.051844 53.182755 25,525 109 471 -3968
2021-06-12 22:54:08 GMT 26.052567 53.180511 25,575 109 472 -3776
2021-06-12 22:54:07 GMT 26.053299 53.178284 25,650 109 472 -3712
2021-06-12 22:54:05 GMT 26.054810 53.173622 25,775 110 473 -3904
2021-06-12 22:54:03 GMT 26.057150 53.166645 26,000 110 473 -5184
2021-06-12 22:54:00 GMT 26.058243 53.163307 26,150 110 472 -5312
2021-06-12 22:53:58 GMT 26.060501 53.156769 26,425 110 469 -6336
2021-06-12 22:53:57 GMT 26.061218 53.154655 26,525 110 469 -6336
2021-06-12 22:53:55 GMT 26.062410 53.151115 26,675 110 469 -6336
2021-06-12 22:53:52 GMT 26.064831 53.144249 27,025 111 466 -6272
2021-06-12 22:53:50 GMT 26.068556 53.133896 27,500 112 464 -6208
2021-06-12 22:53:47 GMT 26.068556 53.133896 27,500 112 464 -6208
2021-06-12 22:53:46 GMT 26.069366 53.131645 27,600 112 461 -6208
2021-06-12 22:53:45 GMT 26.070185 53.129406 27,700 112 461 -6208
2021-06-12 22:53:44 GMT 26.071022 53.127083 27,800 112 461 -6208
2021-06-12 22:53:42 GMT 26.073116 53.121487 27,950 112 461 -6144
2021-06-12 22:53:39 GMT 26.074793 53.116943 28,275 112 458 -5952
2021-06-12 22:53:37 GMT 26.076599 53.112057 28,475 112 457 -5888
2021-06-12 22:53:34 GMT 26.078983 53.105587 28,750 112 455 -5504
2021-06-12 22:53:33 GMT 26.079712 53.103455 28,850 112 455 -5504
2021-06-12 22:53:30 GMT 26.082148 53.096817 29,100 112 455 -4992
2021-06-12 22:53:20 GMT 26.090149 53.074951 29,725 111 455 -3200
2021-06-12 22:53:10 GMT 26.098303 53.052292 30,275 111 458 -3264
2021-06-12 22:52:59 GMT 26.106867 53.028629 30,875 111 462 -3456
2021-06-12 22:52:51 GMT 26.113850 53.009560 31,400 112 464 -3392
2021-06-12 22:52:39 GMT 26.123812 52.983467 31,900 113 467 -2176
2021-06-12 22:52:28 GMT 26.133076 52.959332 32,325 113 469 -2432
2021-06-12 22:52:20 GMT 26.139725 52.942181 32,675 113 469 -2944
2021-06-12 22:52:18 GMT 26.141830 52.936741 32,800 113 469 -3072
2021-06-12 22:52:10 GMT 26.148285 52.919952 33,175 113 467 -3008
2021-06-12 22:52:07 GMT 26.150940 52.913059 33,350 113 466 -3008
2021-06-12 22:52:00 GMT 26.156937 52.897564 33,700 113 465 -3008
2021-06-12 22:51:57 GMT 26.159611 52.890667 33,850 113 465 -2944
2021-06-12 22:51:49 GMT 26.165955 52.874191 34,225 113 464 -3072
2021-06-12 22:51:45 GMT 26.169434 52.865154 34,450 112 463 -3072
2021-06-12 22:51:39 GMT 26.174194 52.852581 34,750 112 462 -3072
2021-06-12 22:51:35 GMT 26.177534 52.843868 34,950 112 461 -3072
2021-06-12 22:51:29 GMT 26.182749 52.830082 35,250 112 460 -3008
2021-06-12 22:51:24 GMT 26.186646 52.819881 35,500 112 459 -3008
2021-06-12 22:51:19 GMT 26.191086 52.808224 35,750 112 458 -2944
2021-06-12 22:51:09 GMT 26.199509 52.786144 36,175 112 459 -2368
2021-06-12 22:51:03 GMT 26.204132 52.774017 36,375 112 459 -2240
2021-06-12 22:50:58 GMT 26.208206 52.763344 36,550 113 460 -2112
2021-06-12 22:50:53 GMT 26.212868 52.751118 36,700 112 461 -1920
2021-06-12 22:50:48 GMT 26.217010 52.740345 36,850 113 462 -1408
2021-06-12 22:50:42 GMT 26.222031 52.727173 36,975 113 465 -640
2021-06-12 22:50:37 GMT 26.225855 52.717262 37,000 112 466 -192
2021-06-12 22:50:30 GMT 26.232056 52.701054 37,025 113 467 0
2021-06-12 22:50:27 GMT 26.234608 52.694389 37,025 113 467 0
2021-06-12 22:50:22 GMT 26.238750 52.683563 37,025 113 467 0
2021-06-12 22:50:17 GMT 26.243271 52.671928 37,025 113 467 0
2021-06-12 22:50:11 GMT 26.247986 52.659649 37,025 113 466 0
2021-06-12 22:50:05 GMT 26.252436 52.648121 37,025 113 467 0
2021-06-12 22:50:01 GMT 26.256998 52.636292 37,025 113 467 0
2021-06-12 22:49:56 GMT 26.260941 52.626064 37,025 113 467 0
2021-06-12 22:49:49 GMT 26.266525 52.611660 37,000 113 467 0
2021-06-12 22:49:46 GMT 26.269775 52.603214 37,000 113 467 0
2021-06-12 22:49:39 GMT 26.275314 52.588806 37,000 113 467 0
2021-06-12 22:49:35 GMT 26.278748 52.579891 37,000 113 467 0
2021-06-12 22:49:29 GMT 26.283581 52.567364 37,000 113 467 0
2021-06-12 22:49:25 GMT 26.287676 52.556744 37,000 113 467 0
2021-06-12 22:49:19 GMT 26.292664 52.543823 37,000 113 467 0
2021-06-12 22:49:16 GMT 26.295456 52.536465 37,000 113 468 0
2021-06-12 22:49:08 GMT 26.301819 52.519936 37,000 113 468 0
2021-06-12 22:49:04 GMT 26.304565 52.512730 37,000 113 468 0
2021-06-12 22:48:58 GMT 26.310488 52.497272 37,000 113 468 0
2021-06-12 22:48:54 GMT 26.313839 52.488503 37,000 113 468 0
2021-06-12 22:48:47 GMT 26.319332 52.474136 37,000 113 468 0
2021-06-12 22:48:44 GMT 26.322033 52.467060 37,000 113 468 0
2021-06-12 22:48:37 GMT 26.328176 52.451054 37,025 113 468 0
2021-06-12 22:48:33 GMT 26.331070 52.443443 37,025 113 468 0
2021-06-12 22:48:24 GMT 26.339582 52.421158 37,025 113 468 0
2021-06-12 22:48:13 GMT 26.348373 52.398151 37,000 113 468 -64
2021-06-12 22:48:03 GMT 26.356522 52.375870 37,025 110 467 0
2021-06-12 22:47:53 GMT 26.364441 52.352238 37,000 110 466 0
2021-06-12 22:47:43 GMT 26.371937 52.329731 37,025 110 466 0
2021-06-12 22:47:32 GMT 26.380463 52.304302 37,025 110 467 0
2021-06-12 22:47:21 GMT 26.387512 52.283157 37,025 110 467 0
2021-06-12 22:47:12 GMT 26.394886 52.261169 37,025 110 467 0
2021-06-12 22:47:01 GMT 26.403305 52.236000 37,025 110 467 0
2021-06-12 22:46:50 GMT 26.411499 52.211540 37,000 110 466 0
2021-06-12 22:46:41 GMT 26.418070 52.191818 37,000 110 466 0
2021-06-12 22:46:30 GMT 26.426449 52.166679 37,000 110 468 0
2021-06-12 22:46:20 GMT 26.434269 52.143333 37,025 110 467 0
2021-06-12 22:46:09 GMT 26.442230 52.119511 37,025 110 467 0
2021-06-12 22:45:59 GMT 26.450237 52.095634 37,025 110 467 0
2021-06-12 22:45:48 GMT 26.458384 52.071339 37,000 110 467 0
2021-06-12 22:45:37 GMT 26.466660 52.046902 37,000 110 467 0
2021-06-12 22:45:29 GMT 26.473343 52.026951 37,000 110 467 -64
2021-06-12 22:45:27 GMT 26.474487 52.023579 37,025 110 467 -64
2021-06-12 22:45:16 GMT 26.482727 51.999016 37,000 110 467 64
2021-06-12 22:45:08 GMT 26.488953 51.980412 37,025 110 467 0
2021-06-12 22:45:06 GMT 26.490179 51.976795 37,025 110 467 0
2021-06-12 22:44:57 GMT 26.497192 51.955795 37,000 110 467 0
2021-06-12 22:44:55 GMT 26.498371 51.952339 37,000 110 467 0
2021-06-12 22:44:47 GMT 26.505075 51.932163 37,000 110 467 0
2021-06-12 22:44:41 GMT 26.509232 51.919678 37,000 110 467 0
2021-06-12 22:44:36 GMT 26.512802 51.908794 37,000 110 467 0
2021-06-12 22:44:34 GMT 26.513947 51.905323 37,000 110 467 0
2021-06-12 22:44:24 GMT 26.521601 51.881931 37,000 109 467 0
2021-06-12 22:44:21 GMT 26.524155 51.874020 37,000 109 467 0
2021-06-12 22:44:16 GMT 26.528118 51.861809 37,000 109 468 0
2021-06-12 22:44:13 GMT 26.529785 51.856609 37,000 109 468 0
2021-06-12 22:44:05 GMT 26.535753 51.838093 37,000 109 467 0
2021-06-12 22:44:02 GMT 26.538025 51.831165 37,000 109 467 0
2021-06-12 22:43:56 GMT 26.542271 51.818020 37,000 109 468 0
2021-06-12 22:43:52 GMT 26.544891 51.809917 37,025 109 467 0
2021-06-12 22:43:46 GMT 26.549580 51.795467 37,025 109 467 0
2021-06-12 22:43:44 GMT 26.551069 51.790871 37,025 109 467 0
2021-06-12 22:43:42 GMT 26.552652 51.786064 37,025 109 467 0
2021-06-12 22:43:33 GMT 26.559448 51.764992 37,025 109 467 0
2021-06-12 22:43:30 GMT 26.561234 51.759441 37,025 109 467 0
2021-06-12 22:43:26 GMT 26.564428 51.749565 37,025 109 467 0
2021-06-12 22:43:24 GMT 26.565994 51.744778 37,025 109 467 0
2021-06-12 22:43:20 GMT 26.568649 51.736588 37,025 109 467 0
2021-06-12 22:43:15 GMT 26.572109 51.725800 37,025 109 467 0
2021-06-12 22:43:12 GMT 26.574392 51.718773 37,025 109 467 0
2021-06-12 22:43:09 GMT 26.576340 51.712749 37,025 109 467 0
2021-06-12 22:43:05 GMT 26.579727 51.702282 37,025 109 467 0
2021-06-12 22:43:03 GMT 26.580956 51.698490 37,025 109 467 0
2021-06-12 22:42:59 GMT 26.583750 51.689987 37,025 109 467 0
2021-06-12 22:42:55 GMT 26.586823 51.680363 37,025 109 467 0
2021-06-12 22:42:52 GMT 26.589243 51.672981 37,025 109 467 0
2021-06-12 22:42:49 GMT 26.591244 51.666855 37,025 109 467 0
2021-06-12 22:42:45 GMT 26.594316 51.657291 37,025 109 467 0
2021-06-12 22:42:42 GMT 26.596876 51.649475 37,025 109 467 0
2021-06-12 22:42:38 GMT 26.599157 51.642448 37,025 109 467 0
2021-06-12 22:42:35 GMT 26.601719 51.634476 37,025 109 467 0
2021-06-12 22:42:32 GMT 26.603720 51.628242 37,025 109 467 0
2021-06-12 22:42:28 GMT 26.606745 51.618999 37,025 109 467 0
2021-06-12 22:42:25 GMT 26.608932 51.612110 37,025 109 467 0
2021-06-12 22:42:22 GMT 26.611214 51.605106 37,025 109 467 0
2021-06-12 22:42:15 GMT 26.616486 51.588737 37,025 109 468 0
2021-06-12 22:42:11 GMT 26.619825 51.578327 37,000 109 468 0
2021-06-12 22:42:05 GMT 26.623764 51.565937 37,025 109 468 0
2021-06-12 22:42:03 GMT 26.625460 51.560581 37,000 109 467 0
2021-06-12 22:41:55 GMT 26.631046 51.543152 37,025 109 468 0
2021-06-12 22:41:52 GMT 26.633331 51.535984 37,000 109 468 0
2021-06-12 22:41:45 GMT 26.638353 51.520279 37,000 109 468 0
2021-06-12 22:41:41 GMT 26.640682 51.513096 37,000 109 468 -64
2021-06-12 22:41:35 GMT 26.645508 51.497948 37,025 109 468 0
2021-06-12 22:41:32 GMT 26.647804 51.490807 37,025 109 468 0
2021-06-12 22:41:25 GMT 26.652832 51.475067 37,025 109 468 0
2021-06-12 22:41:20 GMT 26.656265 51.464417 37,000 109 468 0
2021-06-12 22:41:14 GMT 26.660561 51.451035 37,000 109 468 0
2021-06-12 22:41:11 GMT 26.662748 51.444275 37,000 109 468 0
2021-06-12 22:41:05 GMT 26.670336 51.420822 37,000 109 468 0
2021-06-12 22:41:01 GMT 26.670336 51.420822 37,025 109 468 0
2021-06-12 22:40:55 GMT 26.674898 51.406563 37,025 109 468 0
2021-06-12 22:40:50 GMT 26.678062 51.396736 37,025 109 468 0
2021-06-12 22:40:45 GMT 26.682579 51.382847 37,025 109 468 0
2021-06-12 22:40:41 GMT 26.685287 51.374454 37,025 109 468 0
2021-06-12 22:40:35 GMT 26.689636 51.360928 37,025 109 468 0
2021-06-12 22:40:33 GMT 26.691145 51.356277 37,025 109 468 0
2021-06-12 22:40:30 GMT 26.692820 51.350994 37,025 109 468 0
2021-06-12 22:40:25 GMT 26.697281 51.337299 37,025 109 468 0
2021-06-12 22:40:20 GMT 26.700409 51.327599 37,025 109 468 0
2021-06-12 22:40:14 GMT 26.704697 51.314186 37,025 109 468 0
2021-06-12 22:40:11 GMT 26.707169 51.306515 37,000 109 468 0
2021-06-12 22:40:04 GMT 26.712139 51.291153 37,000 109 468 0
2021-06-12 22:40:00 GMT 26.715317 51.281330 37,025 109 468 0
2021-06-12 22:39:57 GMT 26.718109 51.272621 37,025 109 469 0
2021-06-12 22:39:50 GMT 26.722567 51.258774 37,025 109 469 0
2021-06-12 22:39:47 GMT 26.724884 51.251480 37,025 109 469 0
2021-06-12 22:39:44 GMT 26.726715 51.245884 37,025 109 469 0
2021-06-12 22:39:41 GMT 26.729279 51.238007 37,025 109 469 0
2021-06-12 22:39:38 GMT 26.732162 51.228989 37,000 109 469 0
2021-06-12 22:39:34 GMT 26.734018 51.223122 37,000 109 469 0
2021-06-12 22:39:29 GMT 26.737556 51.212238 37,000 109 469 0
2021-06-12 22:39:23 GMT 26.741592 51.199657 37,000 109 469 0
2021-06-12 22:39:20 GMT 26.744354 51.191006 37,000 109 469 0
2021-06-12 22:39:17 GMT 26.747314 51.181778 37,000 109 470 0
2021-06-12 22:39:14 GMT 26.749056 51.176376 37,000 109 470 0
2021-06-12 22:39:10 GMT 26.752075 51.166958 37,000 109 470 0
2021-06-12 22:39:07 GMT 26.753525 51.162380 37,000 109 470 0
2021-06-12 22:39:04 GMT 26.756130 51.154194 37,000 109 470 0
2021-06-12 22:39:00 GMT 26.759296 51.144367 37,000 109 470 0
2021-06-12 22:38:57 GMT 26.760880 51.139507 37,000 109 470 0
2021-06-12 22:38:54 GMT 26.763720 51.130634 37,000 109 470 0
2021-06-12 22:38:49 GMT 26.767025 51.120232 37,000 109 470 0
2021-06-12 22:38:44 GMT 26.771214 51.106972 37,000 109 470 0
2021-06-12 22:38:38 GMT 26.774963 51.095596 37,000 110 470 0
2021-06-12 22:38:36 GMT 26.776474 51.091141 37,000 111 470 0
2021-06-12 22:38:33 GMT 26.778946 51.084198 37,000 112 471 0
2021-06-12 22:38:28 GMT 26.783644 51.071743 37,025 112 471 0
2021-06-12 22:38:24 GMT 26.787228 51.062393 37,000 112 471 0
2021-06-12 22:38:18 GMT 26.791744 51.050404 37,000 112 472 0
2021-06-12 22:38:14 GMT 26.795980 51.039310 37,000 112 472 0
2021-06-12 22:38:09 GMT 26.799957 51.028851 37,000 112 472 0
2021-06-12 22:38:04 GMT 26.804123 51.017815 37,000 112 473 0
2021-06-12 22:37:59 GMT 26.808609 51.005997 37,000 112 473 0
2021-06-12 22:37:53 GMT 26.813578 50.992989 37,000 112 473 0
2021-06-12 22:37:48 GMT 26.817627 50.982265 37,000 113 474 0
2021-06-12 22:37:44 GMT 26.821350 50.972603 37,000 113 474 0
2021-06-12 22:37:39 GMT 26.825775 50.960964 37,000 113 474 0
2021-06-12 22:37:34 GMT 26.830215 50.949409 37,000 113 475 0
2021-06-12 22:37:32 GMT 26.832275 50.944122 37,000 113 475 0
2021-06-12 22:37:28 GMT 26.834702 50.937798 37,000 113 475 0
2021-06-12 22:37:24 GMT 26.838715 50.927280 37,000 113 475 0
2021-06-12 22:37:21 GMT 26.841431 50.920181 37,000 113 475 0
2021-06-12 22:37:18 GMT 26.843307 50.915359 37,000 113 475 0
2021-06-12 22:37:14 GMT 26.847513 50.904305 37,000 113 475 0
2021-06-12 22:37:11 GMT 26.850447 50.896702 37,000 113 475 0
2021-06-12 22:37:08 GMT 26.852215 50.892052 37,000 113 475 0
2021-06-12 22:37:04 GMT 26.856216 50.881519 37,000 113 475 0
2021-06-12 22:37:00 GMT 26.859512 50.873020 37,000 113 475 0
2021-06-12 22:36:57 GMT 26.861160 50.868618 37,025 113 475 0
2021-06-12 22:36:54 GMT 26.865005 50.858616 37,025 113 475 0
2021-06-12 22:36:50 GMT 26.868851 50.848511 37,000 113 475 0
2021-06-12 22:36:47 GMT 26.870270 50.844830 37,000 113 475 0
2021-06-12 22:36:41 GMT 26.875534 50.831043 37,025 113 474 0
2021-06-12 22:36:38 GMT 26.878239 50.823971 37,000 113 475 0
2021-06-12 22:36:33 GMT 26.882055 50.814037 37,000 113 475 0
2021-06-12 22:36:28 GMT 26.886990 50.801151 37,025 113 475 0
2021-06-12 22:36:22 GMT 26.891413 50.789585 37,025 113 475 0
2021-06-12 22:36:20 GMT 26.893890 50.783112 37,000 113 475 0
2021-06-12 22:36:17 GMT 26.896532 50.776169 37,025 113 474 0
2021-06-12 22:36:13 GMT 26.899605 50.768085 37,025 113 474 0
2021-06-12 22:36:08 GMT 26.904913 50.754250 37,025 113 474 0
2021-06-12 22:36:02 GMT 26.908447 50.744919 37,000 113 474 0
2021-06-12 22:35:59 GMT 26.912109 50.735329 37,000 113 474 0
2021-06-12 22:35:56 GMT 26.913990 50.730373 37,000 113 474 0
2021-06-12 22:35:53 GMT 26.916924 50.722713 37,025 113 474 0
2021-06-12 22:35:47 GMT 26.923233 50.706051 37,025 113 474 0
2021-06-12 22:35:43 GMT 26.925394 50.700375 37,025 113 474 0
2021-06-12 22:35:36 GMT 26.931702 50.683765 37,025 112 474 0
2021-06-12 22:35:33 GMT 26.934082 50.677601 37,025 112 474 0
2021-06-12 22:35:25 GMT 26.941223 50.658737 37,025 112 474 0
2021-06-12 22:35:23 GMT 26.942780 50.654640 37,000 112 474 0
2021-06-12 22:35:15 GMT 26.949554 50.636814 37,000 112 474 0
2021-06-12 22:35:13 GMT 26.951696 50.631126 37,000 112 474 0
2021-06-12 22:35:08 GMT 26.956074 50.619663 37,000 112 474 0
2021-06-12 22:35:05 GMT 26.958160 50.614063 37,000 112 474 0
2021-06-12 22:35:03 GMT 26.960358 50.608418 37,000 112 474 0
2021-06-12 22:34:56 GMT 26.965942 50.593700 37,025 112 474 0
2021-06-12 22:34:53 GMT 26.968737 50.586231 37,025 112 474 0
2021-06-12 22:34:45 GMT 26.975811 50.567638 37,000 112 474 0
2021-06-12 22:34:43 GMT 26.977478 50.563278 37,000 112 474 0
2021-06-12 22:34:35 GMT 26.984470 50.544872 37,025 112 474 0
2021-06-12 22:34:33 GMT 26.985809 50.541306 37,000 112 474 0
2021-06-12 22:34:25 GMT 26.992859 50.522755 37,000 112 473 0
2021-06-12 22:34:23 GMT 26.995056 50.517002 37,000 112 473 0
2021-06-12 22:34:15 GMT 27.001415 50.500240 37,000 112 473 0
2021-06-12 22:34:13 GMT 27.003092 50.495804 37,000 112 473 0
2021-06-12 22:34:05 GMT 27.010300 50.476788 37,000 112 473 0
2021-06-12 22:34:02 GMT 27.012909 50.469997 37,000 112 473 0
2021-06-12 22:33:53 GMT 27.020176 50.450645 37,000 112 473 0
2021-06-12 22:33:50 GMT 27.022224 50.445255 37,000 112 473 0
2021-06-12 22:33:45 GMT 27.027649 50.430923 37,025 112 472 -64
2021-06-12 22:33:42 GMT 27.030991 50.421650 37,025 111 472 0
2021-06-12 22:33:40 GMT 27.030991 50.421650 37,025 110 472 0
2021-06-12 22:33:33 GMT 27.036283 50.404694 37,025 107 471 0
2021-06-12 22:33:29 GMT 27.038239 50.397457 37,025 105 471 0
2021-06-12 22:33:23 GMT 27.041962 50.381348 37,025 102 471 0
2021-06-12 22:33:21 GMT 27.042664 50.377754 37,025 101 470 0
2021-06-12 22:33:17 GMT 27.044336 50.368404 37,025 100 470 0
2021-06-12 22:33:12 GMT 27.046143 50.355576 37,025 97 469 0
2021-06-12 22:33:08 GMT 27.047150 50.346455 37,025 95 470 0
2021-06-12 22:33:05 GMT 27.047874 50.337086 37,025 93 469 0
2021-06-12 22:33:01 GMT 27.048248 50.329872 37,025 92 469 0
2021-06-12 22:32:58 GMT 27.048477 50.322308 37,025 90 469 0
2021-06-12 22:32:52 GMT 27.048523 50.306602 37,025 89 469 0
2021-06-12 22:32:47 GMT 27.048431 50.295670 37,025 89 469 0
2021-06-12 22:32:44 GMT 27.048386 50.287277 37,025 89 469 0
2021-06-12 22:32:40 GMT 27.048292 50.277348 37,025 89 468 0
2021-06-12 22:32:37 GMT 27.048248 50.270588 37,025 89 468 0
2021-06-12 22:32:32 GMT 27.048155 50.258808 37,025 89 468 0
2021-06-12 22:32:27 GMT 27.048014 50.245129 37,025 89 468 0
2021-06-12 22:32:22 GMT 27.047920 50.233982 37,025 89 468 0
2021-06-12 22:32:16 GMT 27.047829 50.220039 37,025 89 468 0
2021-06-12 22:32:12 GMT 27.047699 50.209023 37,025 89 468 0
2021-06-12 22:32:06 GMT 27.047562 50.193836 37,000 89 468 0
2021-06-12 22:32:02 GMT 27.047516 50.184978 37,025 89 468 0
2021-06-12 22:31:57 GMT 27.047424 50.173836 37,025 89 468 0
2021-06-12 22:31:52 GMT 27.047316 50.163784 37,025 89 468 0
2021-06-12 22:31:45 GMT 27.047176 50.143291 37,025 89 467 0
2021-06-12 22:31:42 GMT 27.047129 50.137482 37,000 89 467 0
2021-06-12 22:31:40 GMT 27.047083 50.134418 37,000 89 467 0
2021-06-12 22:31:36 GMT 27.046989 50.122852 37,025 89 467 0
2021-06-12 22:31:33 GMT 27.046921 50.117661 37,025 89 467 0
2021-06-12 22:31:30 GMT 27.046898 50.111282 37,025 89 467 0
2021-06-12 22:31:24 GMT 27.046738 50.091228 37,000 89 467 0
2021-06-12 22:31:21 GMT 27.046692 50.087708 37,000 89 467 0
2021-06-12 22:31:15 GMT 27.046555 50.072575 37,000 89 467 0
2021-06-12 22:31:11 GMT 27.046478 50.063271 37,000 89 467 0
2021-06-12 22:31:04 GMT 27.046371 50.047028 37,000 89 467 0
2021-06-12 22:31:01 GMT 27.046291 50.038605 37,000 89 467 0
2021-06-12 22:30:51 GMT 27.046371 50.014481 37,025 92 467 0
2021-06-12 22:30:44 GMT 27.047176 49.997250 37,025 94 467 0
2021-06-12 22:30:41 GMT 27.047735 49.989536 37,025 95 467 0
2021-06-12 22:30:36 GMT 27.048660 49.979656 37,025 97 467 0
2021-06-12 22:30:31 GMT 27.050295 49.965611 37,025 99 467 0
2021-06-12 22:30:25 GMT 27.052017 49.953938 37,025 100 467 0
2021-06-12 22:30:21 GMT 27.054111 49.942051 37,025 101 467 0
2021-06-12 22:30:15 GMT 27.056534 49.929909 37,025 103 467 0
2021-06-12 22:30:10 GMT 27.059746 49.916065 37,025 105 468 0
2021-06-12 22:30:05 GMT 27.062586 49.905079 37,025 106 468 0
2021-06-12 22:30:00 GMT 27.066101 49.891560 37,025 106 468 0
2021-06-12 22:29:54 GMT 27.068985 49.880260 37,025 106 468 0
2021-06-12 22:29:50 GMT 27.071476 49.870640 37,025 105 468 0
2021-06-12 22:29:48 GMT 27.072407 49.867104 37,000 105 468 0
2021-06-12 22:29:43 GMT 27.075623 49.854557 37,025 105 468 0
2021-06-12 22:29:39 GMT 27.078552 49.843121 37,000 106 468 0
2021-06-12 22:29:33 GMT 27.081528 49.831600 37,025 106 468 0
2021-06-12 22:29:30 GMT 27.083626 49.823631 37,025 106 467 0
2021-06-12 22:29:27 GMT 27.085024 49.818085 37,025 106 467 0
2021-06-12 22:29:20 GMT 27.089493 49.800865 37,025 106 467 0
2021-06-12 22:29:18 GMT 27.091400 49.793526 37,025 106 467 0
2021-06-12 22:29:09 GMT 27.095869 49.776360 37,025 106 467 0
2021-06-12 22:29:06 GMT 27.097778 49.768894 37,025 106 467 0
2021-06-12 22:29:02 GMT 27.100525 49.758347 37,025 106 467 0
2021-06-12 22:28:59 GMT 27.102036 49.752522 37,025 106 467 0
2021-06-12 22:28:57 GMT 27.103912 49.745266 37,025 106 467 0
2021-06-12 22:28:49 GMT 27.107986 49.729614 37,025 106 467 0
2021-06-12 22:28:45 GMT 27.110580 49.719578 37,025 106 467 0
2021-06-12 22:28:39 GMT 27.114025 49.706161 37,025 106 466 0
2021-06-12 22:28:36 GMT 27.116547 49.696552 37,025 106 466 0
2021-06-12 22:28:28 GMT 27.120588 49.680809 37,025 106 466 0
2021-06-12 22:28:24 GMT 27.122917 49.671829 37,025 106 466 0
2021-06-12 22:28:18 GMT 27.126314 49.658573 37,025 106 466 0
2021-06-12 22:28:15 GMT 27.129227 49.647270 37,025 106 466 0
2021-06-12 22:28:08 GMT 27.132925 49.632904 37,025 106 466 0
2021-06-12 22:28:04 GMT 27.135361 49.623379 37,025 106 466 0
2021-06-12 22:27:58 GMT 27.138931 49.609543 37,025 106 466 0
2021-06-12 22:27:54 GMT 27.141769 49.598572 37,025 106 466 0
2021-06-12 22:27:49 GMT 27.144144 49.589275 37,025 106 466 0
2021-06-12 22:27:46 GMT 27.145494 49.584045 37,025 106 466 0
2021-06-12 22:27:42 GMT 27.148361 49.572956 37,025 106 466 0
2021-06-12 22:27:37 GMT 27.151382 49.561295 37,025 106 466 0
2021-06-12 22:27:33 GMT 27.154129 49.550621 37,025 106 466 0
2021-06-12 22:27:28 GMT 27.156574 49.541050 37,025 106 466 0
2021-06-12 22:27:25 GMT 27.158436 49.533710 37,025 106 466 0
2021-06-12 22:27:22 GMT 27.160439 49.525997 37,025 106 466 0
2021-06-12 22:27:18 GMT 27.162394 49.518391 37,025 105 465 0
2021-06-12 22:27:16 GMT 27.163971 49.512218 37,025 105 465 0
2021-06-12 22:27:12 GMT 27.166718 49.501492 37,025 105 465 0
2021-06-12 22:27:09 GMT 27.168213 49.495731 37,025 105 465 0
2021-06-12 22:27:01 GMT 27.172897 49.477291 37,025 105 464 0
2021-06-12 22:26:58 GMT 27.174362 49.471695 37,025 105 464 0
2021-06-12 22:26:55 GMT 27.176376 49.463764 37,025 105 464 0
2021-06-12 22:26:51 GMT 27.179306 49.452366 37,025 105 464 0
2021-06-12 22:26:48 GMT 27.180771 49.446613 37,025 105 464 0
2021-06-12 22:26:41 GMT 27.184708 49.431118 37,025 105 464 0
2021-06-12 22:26:37 GMT 27.186787 49.423161 37,025 105 464 0
2021-06-12 22:26:34 GMT 27.188690 49.415569 37,025 105 464 0
2021-06-12 22:26:30 GMT 27.191483 49.404690 37,025 105 464 0
2021-06-12 22:26:23 GMT 27.195444 49.389248 37,000 105 464 0
2021-06-12 22:26:19 GMT 27.197754 49.380226 37,000 105 465 0
2021-06-12 22:26:12 GMT 27.201450 49.365799 37,025 105 464 0
2021-06-12 22:26:09 GMT 27.204336 49.354496 37,025 105 465 0
2021-06-12 22:26:04 GMT 27.207184 49.343281 37,025 105 465 0
2021-06-12 22:26:02 GMT 27.207829 49.340919 37,025 105 465 0
2021-06-12 22:25:59 GMT 27.209610 49.333797 37,000 105 465 0
2021-06-12 22:25:56 GMT 27.211624 49.325920 37,000 105 465 0
2021-06-12 22:25:50 GMT 27.214624 49.314247 37,000 105 465 0
2021-06-12 22:25:46 GMT 27.217667 49.302288 37,000 105 465 0
2021-06-12 22:25:40 GMT 27.220917 49.289486 37,000 105 465 0
2021-06-12 22:25:36 GMT 27.223610 49.279068 37,000 105 465 0
2021-06-12 22:25:30 GMT 27.226681 49.266975 37,000 105 466 0
2021-06-12 22:25:27 GMT 27.228823 49.258629 37,025 105 466 0
2021-06-12 22:25:24 GMT 27.230593 49.251602 37,025 105 466 0
2021-06-12 22:25:18 GMT 27.233850 49.238819 37,025 105 466 0
2021-06-12 22:25:15 GMT 27.235899 49.230793 37,025 105 466 0
2021-06-12 22:25:09 GMT 27.239227 49.217609 37,025 105 467 0
2021-06-12 22:25:05 GMT 27.241951 49.207024 37,025 105 467 0
2021-06-12 22:24:55 GMT 27.247955 49.183308 37,000 105 467 0
2021-06-12 22:24:44 GMT 27.254059 49.159309 37,025 105 467 0
2021-06-12 22:24:36 GMT 27.258848 49.140419 37,000 105 468 0
2021-06-12 22:24:33 GMT 27.260284 49.134747 37,000 105 468 0
2021-06-12 22:24:28 GMT 27.263784 49.120983 37,025 105 468 0
2021-06-12 22:24:24 GMT 27.266327 49.110855 37,025 105 468 0
2021-06-12 22:24:15 GMT 27.271500 49.090439 37,000 105 469 64
2021-06-12 22:24:12 GMT 27.272629 49.085911 37,000 105 469 0
2021-06-12 22:24:06 GMT 27.276810 49.069450 37,000 105 469 0
2021-06-12 22:24:03 GMT 27.278824 49.061417 37,000 105 469 0
2021-06-12 22:23:55 GMT 27.283661 49.042175 37,000 105 470 64
2021-06-12 22:23:52 GMT 27.284872 49.037369 37,000 105 470 0
2021-06-12 22:23:44 GMT 27.289946 49.017246 37,000 105 470 0
2021-06-12 22:23:42 GMT 27.291109 49.012547 37,000 105 471 0
2021-06-12 22:23:35 GMT 27.295441 48.995342 37,000 105 471 0
2021-06-12 22:23:30 GMT 27.297363 48.987724 37,000 105 471 0
2021-06-12 22:23:24 GMT 27.301392 48.971607 37,025 105 471 0
2021-06-12 22:23:21 GMT 27.303724 48.962421 37,000 105 472 0
2021-06-12 22:23:14 GMT 27.307434 48.947666 37,000 105 472 0
2021-06-12 22:23:09 GMT 27.309906 48.937771 37,000 105 472 0
2021-06-12 22:23:04 GMT 27.313477 48.923622 37,000 105 472 0
2021-06-12 22:23:00 GMT 27.316248 48.912506 37,000 105 473 0
2021-06-12 22:22:52 GMT 27.320343 48.896210 37,000 105 473 0
2021-06-12 22:22:48 GMT 27.322403 48.888176 37,000 105 473 0
2021-06-12 22:22:44 GMT 27.325651 48.875271 37,000 105 473 0
2021-06-12 22:22:39 GMT 27.328720 48.863144 37,000 105 473 0
2021-06-12 22:22:32 GMT 27.332447 48.848225 37,000 105 474 0
2021-06-12 22:22:30 GMT 27.333023 48.845993 37,000 105 474 0
2021-06-12 22:22:25 GMT 27.336824 48.830956 37,000 105 474 0
2021-06-12 22:22:22 GMT 27.338425 48.824589 37,000 105 474 0
2021-06-12 22:22:18 GMT 27.341061 48.813999 37,025 105 475 0
2021-06-12 22:22:14 GMT 27.343277 48.805206 37,025 105 475 0
2021-06-12 22:22:12 GMT 27.345064 48.798100 37,000 105 475 0
2021-06-12 22:22:09 GMT 27.345856 48.794930 37,000 105 475 0
2021-06-12 22:22:06 GMT 27.347443 48.788624 37,000 105 475 0
2021-06-12 22:22:00 GMT 27.351395 48.772961 37,000 105 476 0
2021-06-12 22:21:57 GMT 27.353806 48.763336 37,000 105 476 0
2021-06-12 22:21:49 GMT 27.358097 48.746178 37,000 105 476 -64
2021-06-12 22:21:46 GMT 27.359867 48.739048 37,000 105 476 0
2021-06-12 22:21:41 GMT 27.363033 48.726532 37,000 105 476 0
2021-06-12 22:21:36 GMT 27.366257 48.713638 37,000 105 477 0
2021-06-12 22:21:31 GMT 27.371367 48.693310 37,025 105 480 0
2021-06-12 22:21:26 GMT 27.371367 48.693310 37,025 105 477 0
2021-06-12 22:21:23 GMT 27.373672 48.684048 37,025 105 477 0
2021-06-12 22:21:20 GMT 27.378799 48.663628 37,025 105 480 0
2021-06-12 22:21:15 GMT 27.381701 48.651844 37,025 105 478 64
2021-06-12 22:21:10 GMT 27.381701 48.651844 37,025 105 478 0
2021-06-12 22:21:04 GMT 27.384842 48.639221 37,000 105 478 0
2021-06-12 22:20:59 GMT 27.388033 48.626282 37,000 105 478 0
2021-06-12 22:20:54 GMT 27.391382 48.612812 37,000 105 478 0
2021-06-12 22:20:49 GMT 27.394089 48.601959 37,000 105 478 0
2021-06-12 22:20:42 GMT 27.397669 48.587563 37,000 105 478 0
2021-06-12 22:20:38 GMT 27.400229 48.577213 37,000 105 478 0
2021-06-12 22:20:33 GMT 27.403748 48.562939 37,000 105 478 0
2021-06-12 22:20:27 GMT 27.406723 48.551022 37,000 105 478 0
2021-06-12 22:20:20 GMT 27.410795 48.534695 37,000 105 478 0
2021-06-12 22:20:17 GMT 27.412491 48.527908 37,000 105 479 0
2021-06-12 22:20:11 GMT 27.416428 48.511997 37,000 105 479 0
2021-06-12 22:20:07 GMT 27.418762 48.502567 37,025 105 479 0
2021-06-12 22:20:01 GMT 27.422195 48.488728 37,025 105 479 0
2021-06-12 22:19:59 GMT 27.423504 48.483562 37,025 105 479 0
2021-06-12 22:19:56 GMT 27.425226 48.476486 37,025 105 479 0
2021-06-12 22:19:52 GMT 27.427780 48.466290 37,025 105 479 0
2021-06-12 22:19:49 GMT 27.429016 48.461315 37,025 105 479 0
2021-06-12 22:19:46 GMT 27.431417 48.451660 37,000 105 479 0
2021-06-12 22:19:39 GMT 27.435150 48.436649 37,025 105 479 0
2021-06-12 22:19:35 GMT 27.437702 48.426254 37,025 105 479 0
2021-06-12 22:19:30 GMT 27.441195 48.412258 37,025 105 479 0
2021-06-12 22:19:25 GMT 27.444077 48.400631 37,000 105 479 0
2021-06-12 22:19:18 GMT 27.447990 48.384792 37,000 105 480 0
2021-06-12 22:19:14 GMT 27.450119 48.376015 37,000 105 479 0
2021-06-12 22:19:09 GMT 27.456184 48.351517 37,025 105 480 0
2021-06-12 22:19:04 GMT 27.456184 48.351517 37,000 105 480 0
2021-06-12 22:18:57 GMT 27.459915 48.336372 37,000 105 480 0
2021-06-12 22:18:53 GMT 27.462479 48.325851 37,025 105 480 0
2021-06-12 22:18:46 GMT 27.466644 48.308956 37,000 105 480 0
2021-06-12 22:18:41 GMT 27.469824 48.296005 37,000 105 480 0
2021-06-12 22:18:36 GMT 27.472710 48.284279 37,000 105 480 0
2021-06-12 22:18:33 GMT 27.474339 48.277729 37,000 105 480 0
2021-06-12 22:18:27 GMT 27.478622 48.260300 37,000 105 480 0
2021-06-12 22:18:23 GMT 27.480297 48.253536 37,000 105 480 0
2021-06-12 22:18:20 GMT 27.482067 48.246250 37,000 105 479 0
2021-06-12 22:18:15 GMT 27.485001 48.234364 37,025 105 479 0
2021-06-12 22:18:12 GMT 27.486675 48.227657 37,025 105 479 0
2021-06-12 22:18:10 GMT 27.487976 48.222309 37,025 105 479 0
2021-06-12 22:18:06 GMT 27.490906 48.210495 37,025 105 479 0
2021-06-12 22:18:03 GMT 27.492371 48.204590 37,025 105 479 0
2021-06-12 22:17:54 GMT 27.497269 48.184586 37,025 105 479 0
2021-06-12 22:17:52 GMT 27.498459 48.179714 37,025 105 479 0
2021-06-12 22:17:45 GMT 27.503435 48.159519 37,025 105 479 0
2021-06-12 22:17:42 GMT 27.504318 48.155716 37,025 105 479 0
2021-06-12 22:17:32 GMT 27.510178 48.131828 37,025 105 478 0
2021-06-12 22:17:27 GMT 27.513210 48.119377 37,025 105 478 0
2021-06-12 22:17:22 GMT 27.516220 48.107162 37,025 105 478 0
2021-06-12 22:17:15 GMT 27.520287 48.090382 37,025 105 478 0
2021-06-12 22:17:11 GMT 27.522354 48.081871 37,000 105 477 0
2021-06-12 22:17:01 GMT 27.528717 48.055908 37,025 105 478 0
2021-06-12 22:16:51 GMT 27.534531 48.032120 37,025 105 477 0
2021-06-12 22:16:42 GMT 27.539703 48.010822 37,025 105 477 0
2021-06-12 22:16:40 GMT 27.540619 48.007195 37,025 105 477 0
2021-06-12 22:16:30 GMT 27.546844 47.981598 37,000 105 477 0
2021-06-12 22:16:19 GMT 27.553200 47.955482 37,000 105 477 0
2021-06-12 22:16:11 GMT 27.557854 47.936306 37,000 105 477 0
2021-06-12 22:16:08 GMT 27.559389 47.930023 37,000 105 477 0
2021-06-12 22:16:00 GMT 27.564102 47.910549 37,000 105 477 0
2021-06-12 22:15:58 GMT 27.565163 47.906147 37,000 105 477 0
2021-06-12 22:15:50 GMT 27.570377 47.884651 37,025 105 476 0
2021-06-12 22:15:48 GMT 27.571260 47.880955 37,025 105 476 0
2021-06-12 22:15:40 GMT 27.576050 47.861160 37,025 105 476 0
2021-06-12 22:15:37 GMT 27.577454 47.855389 37,025 105 476 0
2021-06-12 22:15:30 GMT 27.581909 47.836906 37,025 105 476 0
2021-06-12 22:15:26 GMT 27.583551 47.830090 37,025 105 476 0
2021-06-12 22:15:20 GMT 27.587540 47.813744 37,025 105 476 0
2021-06-12 22:15:15 GMT 27.589834 47.804207 37,025 105 475 0
2021-06-12 22:15:09 GMT 27.593811 47.787937 37,025 105 475 0
2021-06-12 22:15:05 GMT 27.596146 47.778194 37,025 105 475 0
2021-06-12 22:15:00 GMT 27.599098 47.766125 37,025 105 475 0
2021-06-12 22:14:53 GMT 27.602684 47.751179 37,025 105 475 0
2021-06-12 22:14:49 GMT 27.605118 47.741192 37,025 105 475 0
2021-06-12 22:14:43 GMT 27.608551 47.726994 37,025 105 475 0
2021-06-12 22:14:39 GMT 27.610876 47.717270 37,025 105 475 0
2021-06-12 22:14:32 GMT 27.614786 47.701103 37,025 105 475 0
2021-06-12 22:14:29 GMT 27.616650 47.693233 37,025 105 475 0
2021-06-12 22:14:22 GMT 27.620911 47.675636 37,025 105 475 0
2021-06-12 22:14:19 GMT 27.622604 47.668591 37,025 105 474 0
2021-06-12 22:14:12 GMT 27.626612 47.651932 37,025 105 474 0
2021-06-12 22:14:09 GMT 27.628613 47.643745 37,025 105 474 64
2021-06-12 22:13:59 GMT 27.634386 47.619869 37,000 105 474 0
2021-06-12 22:13:48 GMT 27.640251 47.595573 37,025 105 474 0
2021-06-12 22:13:38 GMT 27.646179 47.570957 37,025 105 474 0
2021-06-12 22:13:28 GMT 27.652168 47.546188 37,025 105 473 0
2021-06-12 22:13:17 GMT 27.658447 47.520168 37,025 105 473 0
2021-06-12 22:13:08 GMT 27.663254 47.500374 37,025 105 473 0
2021-06-12 22:12:58 GMT 27.668974 47.476677 37,025 105 473 0
2021-06-12 22:12:54 GMT 27.671349 47.466801 37,025 105 473 0
2021-06-12 22:12:45 GMT 27.676392 47.445648 37,025 105 473 0
2021-06-12 22:12:35 GMT 27.682068 47.421810 37,025 104 473 0
2021-06-12 22:12:24 GMT 27.688387 47.395283 37,025 104 473 0
2021-06-12 22:12:16 GMT 27.693043 47.375687 37,025 104 473 0
2021-06-12 22:12:11 GMT 27.695370 47.365917 37,025 104 473 0
2021-06-12 22:12:03 GMT 27.700333 47.345219 37,025 104 473 0
2021-06-12 22:11:52 GMT 27.706467 47.319412 37,025 104 473 0
2021-06-12 22:11:44 GMT 27.710953 47.300652 37,025 105 473 0
2021-06-12 22:11:38 GMT 27.715014 47.283466 37,025 104 473 0
2021-06-12 22:11:32 GMT 27.718002 47.271061 37,025 104 473 0
2021-06-12 22:11:21 GMT 27.723862 47.246498 37,025 105 473 0
2021-06-12 22:11:11 GMT 27.729677 47.222195 37,025 105 473 0
2021-06-12 22:11:01 GMT 27.735489 47.197990 37,025 105 473 0
2021-06-12 22:10:58 GMT 27.737869 47.188091 37,025 105 473 0
2021-06-12 22:10:50 GMT 27.742859 47.167053 37,025 104 473 0
2021-06-12 22:10:39 GMT 27.752256 47.127491 37,025 104 473 0
2021-06-12 22:10:31 GMT 27.752256 47.127491 37,025 104 473 0
2021-06-12 22:10:25 GMT 27.755493 47.113831 37,025 104 473 0
2021-06-12 22:10:21 GMT 27.758102 47.102741 37,025 104 473 0
2021-06-12 22:10:18 GMT 27.760300 47.093361 37,025 104 473 0
2021-06-12 22:10:10 GMT 27.764191 47.077038 37,025 104 473 0
2021-06-12 22:09:57 GMT 27.771482 47.045940 37,000 104 473 0
2021-06-12 22:09:48 GMT 27.776321 47.025166 37,025 104 473 0
2021-06-12 22:09:38 GMT 27.781998 47.000912 37,000 104 474 0
2021-06-12 22:09:27 GMT 27.788406 46.973549 37,000 104 474 0
2021-06-12 22:09:17 GMT 27.794014 46.949703 37,025 104 473 0
2021-06-12 22:09:06 GMT 27.799942 46.924786 37,000 104 474 0
2021-06-12 22:08:56 GMT 27.805792 46.899948 37,025 104 474 0
2021-06-12 22:08:47 GMT 27.810678 46.879189 37,000 104 474 0
2021-06-12 22:08:45 GMT 27.811981 46.873737 37,000 104 474 0
2021-06-12 22:08:37 GMT 27.816467 46.854668 37,000 104 474 0
2021-06-12 22:08:34 GMT 27.817848 46.848713 37,000 104 475 0
2021-06-12 22:08:25 GMT 27.823471 46.824768 37,025 104 475 0
2021-06-12 22:08:16 GMT 27.827728 46.806423 37,025 104 475 0
2021-06-12 22:08:12 GMT 27.830231 46.795895 37,025 104 475 0
2021-06-12 22:08:06 GMT 27.833679 46.781185 37,025 104 475 0
2021-06-12 22:08:03 GMT 27.835491 46.773289 37,025 104 475 0
2021-06-12 22:07:57 GMT 27.838703 46.759609 37,025 104 475 0
2021-06-12 22:07:52 GMT 27.841915 46.745979 37,025 104 475 0
2021-06-12 22:07:47 GMT 27.844574 46.734699 37,025 104 475 0
2021-06-12 22:07:41 GMT 27.847961 46.720345 37,025 104 476 0
2021-06-12 22:07:37 GMT 27.850157 46.710911 37,025 104 476 0
2021-06-12 22:07:31 GMT 27.853821 46.695316 37,025 104 476 -64
2021-06-12 22:07:27 GMT 27.855650 46.687458 37,025 104 476 0
2021-06-12 22:07:22 GMT 27.858444 46.675468 37,025 104 476 0
2021-06-12 22:07:17 GMT 27.861374 46.662979 37,025 104 477 0
2021-06-12 22:07:10 GMT 27.865332 46.645782 37,025 104 477 0
2021-06-12 22:07:07 GMT 27.867006 46.638599 37,025 104 477 0
2021-06-12 22:06:57 GMT 27.872501 46.614883 37,000 104 477 0
2021-06-12 22:06:46 GMT 27.878647 46.588158 37,025 104 478 0
2021-06-12 22:06:36 GMT 27.884325 46.563755 37,025 104 479 0
2021-06-12 22:06:27 GMT 27.889206 46.542801 37,025 104 478 0
2021-06-12 22:06:16 GMT 27.895729 46.514793 37,000 104 478 0
2021-06-12 22:06:06 GMT 27.901199 46.491135 37,000 104 479 0
2021-06-12 22:05:56 GMT 27.906921 46.466518 37,000 104 479 0
2021-06-12 22:05:47 GMT 27.912024 46.444649 37,000 104 479 0
2021-06-12 22:05:45 GMT 27.912735 46.441593 37,000 104 480 0
2021-06-12 22:05:37 GMT 27.917704 46.420193 37,000 104 480 0
2021-06-12 22:05:35 GMT 27.918777 46.415474 37,000 104 480 0
2021-06-12 22:05:27 GMT 27.923336 46.395741 37,000 104 480 0
2021-06-12 22:05:24 GMT 27.924820 46.389511 37,000 104 480 0
2021-06-12 22:05:17 GMT 27.928968 46.371494 37,000 104 480 0
2021-06-12 22:05:14 GMT 27.930405 46.365257 37,000 104 480 0
2021-06-12 22:05:07 GMT 27.934662 46.346809 37,000 104 480 0
2021-06-12 22:05:03 GMT 27.936447 46.338932 37,000 104 480 0
2021-06-12 22:04:57 GMT 27.940338 46.322163 37,000 104 481 0
2021-06-12 22:04:52 GMT 27.942352 46.313343 37,000 104 481 0
2021-06-12 22:04:47 GMT 27.945820 46.298164 37,000 104 481 0
2021-06-12 22:04:42 GMT 27.948427 46.286907 37,000 104 481 64
2021-06-12 22:04:36 GMT 27.951546 46.273338 37,000 104 481 -64
2021-06-12 22:04:31 GMT 27.954386 46.261059 37,000 104 481 -64
2021-06-12 22:04:27 GMT 27.956993 46.249588 37,025 104 481 0
2021-06-12 22:04:21 GMT 27.960066 46.236176 37,025 104 481 64
2021-06-12 22:04:16 GMT 27.962585 46.225185 37,025 104 481 0
2021-06-12 22:04:10 GMT 27.966110 46.209606 37,025 104 481 0
2021-06-12 22:04:06 GMT 27.968124 46.200836 37,000 104 481 0
2021-06-12 22:04:00 GMT 27.971563 46.185879 37,025 104 481 0
2021-06-12 22:03:56 GMT 27.973799 46.175968 37,025 104 481 -64
2021-06-12 22:03:49 GMT 27.977428 46.160027 37,025 104 480 0
2021-06-12 22:03:46 GMT 27.979385 46.151505 37,025 104 480 0
2021-06-12 22:03:39 GMT 27.983459 46.133545 37,025 104 481 0
2021-06-12 22:03:36 GMT 27.984879 46.127338 37,025 104 481 0
2021-06-12 22:03:26 GMT 27.990463 46.102699 37,000 104 480 0
2021-06-12 22:03:16 GMT 27.995911 46.078773 37,000 104 481 0
2021-06-12 22:03:06 GMT 28.001587 46.053791 37,025 104 479 0
2021-06-12 22:02:56 GMT 28.006989 46.030182 37,025 104 479 0
2021-06-12 22:02:46 GMT 28.012575 46.005356 37,000 104 479 0
2021-06-12 22:02:35 GMT 28.018581 45.978912 37,025 104 479 0
2021-06-12 22:02:26 GMT 28.023651 45.956657 37,000 104 479 0
2021-06-12 22:02:24 GMT 28.024401 45.953335 37,000 104 479 0
2021-06-12 22:02:14 GMT 28.030380 45.926971 37,025 104 479 0
2021-06-12 22:02:05 GMT 28.035154 45.906101 37,025 104 479 0
2021-06-12 22:02:03 GMT 28.036285 45.901302 37,000 104 479 0
2021-06-12 22:01:55 GMT 28.041046 45.880440 37,025 104 479 0
2021-06-12 22:01:52 GMT 28.042089 45.875729 37,025 104 479 0
2021-06-12 22:01:45 GMT 28.046310 45.857094 37,025 104 478 0
2021-06-12 22:01:33 GMT 28.052519 45.829681 37,000 104 478 0
2021-06-12 22:01:27 GMT 28.055916 45.814442 37,000 104 478 0
2021-06-12 22:01:23 GMT 28.057938 45.805542 37,000 104 478 0
2021-06-12 22:01:21 GMT 28.059219 45.799732 37,025 104 478 0
2021-06-12 22:01:14 GMT 28.063318 45.781700 37,025 104 478 0
2021-06-12 22:01:03 GMT 28.069153 45.755733 37,025 104 478 0
2021-06-12 22:00:53 GMT 28.074463 45.732018 37,025 104 478 0
2021-06-12 22:00:46 GMT 28.078354 45.714588 37,000 104 477 0
2021-06-12 22:00:42 GMT 28.080048 45.707085 37,025 104 477 0
2021-06-12 22:00:37 GMT 28.083389 45.692139 37,025 104 477 0
2021-06-12 22:00:33 GMT 28.085403 45.683159 37,000 104 477 0
2021-06-12 22:00:23 GMT 28.091017 45.658424 37,025 104 477 0
2021-06-12 22:00:13 GMT 28.096619 45.633564 37,025 104 477 0
2021-06-12 22:00:06 GMT 28.100189 45.617718 37,025 104 476 0
2021-06-12 22:00:03 GMT 28.101974 45.609688 37,025 104 476 0
2021-06-12 21:59:51 GMT 28.107834 45.583755 37,025 104 476 0
2021-06-12 21:59:42 GMT 28.113144 45.560196 37,025 104 476 -64
2021-06-12 21:59:32 GMT 28.118866 45.534687 37,025 104 475 0
2021-06-12 21:59:22 GMT 28.124254 45.510433 37,025 104 475 0
2021-06-12 21:59:12 GMT 28.129562 45.486790 37,025 104 475 0
2021-06-12 21:59:02 GMT 28.135071 45.462112 37,025 104 475 0
2021-06-12 21:58:52 GMT 28.140518 45.437870 37,000 104 475 0
2021-06-12 21:58:42 GMT 28.145737 45.414680 37,025 104 474 -64
2021-06-12 21:58:31 GMT 28.151459 45.389065 37,025 104 474 0
2021-06-12 21:58:22 GMT 28.156702 45.365456 37,025 104 474 0
2021-06-12 21:58:11 GMT 28.162380 45.340092 37,025 104 474 0
2021-06-12 21:58:01 GMT 28.167435 45.317337 37,025 104 474 0
2021-06-12 21:57:50 GMT 28.173368 45.290653 37,025 104 473 0
2021-06-12 21:57:39 GMT 28.179108 45.264835 37,025 104 473 0
2021-06-12 21:57:30 GMT 28.183842 45.243317 37,025 104 473 0
2021-06-12 21:57:20 GMT 28.189196 45.219189 37,025 103 472 0
2021-06-12 21:57:09 GMT 28.194735 45.194199 37,025 103 472 0
2021-06-12 21:56:59 GMT 28.199997 45.170235 37,025 103 472 0
2021-06-12 21:56:50 GMT 28.205200 45.146572 37,025 103 472 0
2021-06-12 21:56:39 GMT 28.210564 45.122250 37,025 103 472 0
2021-06-12 21:56:30 GMT 28.215546 45.099300 37,025 103 472 0
2021-06-12 21:56:12 GMT 28.225159 45.055565 37,000 103 472 0
2021-06-12 21:56:10 GMT 28.226212 45.050758 37,000 103 472 0
2021-06-12 21:55:59 GMT 28.231796 45.025299 37,000 103 472 0
2021-06-12 21:55:50 GMT 28.236773 45.002640 37,025 103 473 0
2021-06-12 21:55:40 GMT 28.241940 44.979103 37,000 103 473 0
2021-06-12 21:55:30 GMT 28.247665 44.953037 37,000 103 473 0
2021-06-12 21:55:18 GMT 28.253265 44.927376 37,000 103 474 0
2021-06-12 21:55:09 GMT 28.258232 44.904354 37,000 103 474 0
2021-06-12 21:54:59 GMT 28.263428 44.880577 37,000 103 475 0
2021-06-12 21:54:49 GMT 28.268753 44.855991 37,025 103 475 0
2021-06-12 21:54:39 GMT 28.274139 44.831348 37,025 103 475 0
2021-06-12 21:54:29 GMT 28.279495 44.806892 37,000 103 475 0
2021-06-12 21:54:19 GMT 28.284628 44.783398 37,025 103 476 0
2021-06-12 21:54:08 GMT 28.290400 44.757172 37,000 103 477 0
2021-06-12 21:54:01 GMT 28.294542 44.738052 37,025 103 477 0
2021-06-12 21:53:57 GMT 28.296936 44.727242 37,025 103 477 0
2021-06-12 21:53:49 GMT 28.300781 44.709656 37,025 103 478 0
2021-06-12 21:53:39 GMT 28.306091 44.685146 37,025 103 477 0
2021-06-12 21:53:28 GMT 28.311768 44.659046 37,025 103 478 0
2021-06-12 21:53:24 GMT 28.313828 44.649651 37,025 103 478 0
2021-06-12 21:53:19 GMT 28.316849 44.635654 37,000 103 478 0
2021-06-12 21:53:12 GMT 28.320333 44.619572 37,000 103 478 0
2021-06-12 21:53:08 GMT 28.322205 44.610935 37,000 103 479 0
2021-06-12 21:52:58 GMT 28.327377 44.587063 37,000 103 479 0
2021-06-12 21:52:48 GMT 28.332733 44.562290 37,000 103 479 0
2021-06-12 21:52:38 GMT 28.338135 44.537201 37,000 103 480 0
2021-06-12 21:52:28 GMT 28.343283 44.513100 37,000 103 480 0
2021-06-12 21:52:18 GMT 28.348730 44.487843 37,000 103 481 0
2021-06-12 21:52:08 GMT 28.353991 44.463341 37,000 103 481 0
2021-06-12 21:51:57 GMT 28.359577 44.437111 37,025 103 481 0
2021-06-12 21:51:47 GMT 28.364868 44.412338 37,025 103 481 0
2021-06-12 21:51:16 GMT 28.381073 44.336647 37,000 103 482 0
2021-06-12 21:51:08 GMT 28.385412 44.316425 37,000 103 482 0
2021-06-12 21:49:45 GMT 28.428635 44.113224 37,025 103 483 0
2021-06-12 21:49:34 GMT 28.434200 44.086948 37,025 103 483 0
2021-06-12 21:49:25 GMT 28.439322 44.062824 37,025 103 483 0
2021-06-12 21:49:14 GMT 28.444656 44.037746 37,025 103 483 0
2021-06-12 21:49:04 GMT 28.449795 44.013386 37,025 103 483 0
2021-06-12 21:48:54 GMT 28.455002 43.988464 37,025 103 483 0
2021-06-12 21:48:44 GMT 28.460358 43.963112 37,025 103 483 0
2021-06-12 21:48:34 GMT 28.465483 43.938850 37,025 103 483 0
2021-06-12 21:48:23 GMT 28.471209 43.911598 37,025 103 483 0
2021-06-12 21:48:13 GMT 28.476654 43.885998 37,025 103 484 0
2021-06-12 21:48:04 GMT 28.481415 43.863338 37,025 103 484 0
2021-06-12 21:47:53 GMT 28.486851 43.837440 37,025 103 484 0
2021-06-12 21:47:43 GMT 28.492205 43.812023 37,025 103 484 0
2021-06-12 21:47:32 GMT 28.497253 43.787807 37,025 103 484 0
2021-06-12 21:47:23 GMT 28.502426 43.763245 37,025 103 484 0
2021-06-12 21:47:13 GMT 28.507507 43.739056 37,025 103 484 0
2021-06-12 21:47:02 GMT 28.513138 43.712276 37,025 103 484 0
We lost coverage of the aircraft here for a total of 29 minutes
2021-06-12 21:18:05 GMT 29.352770 39.317162 35,025 101 497 0
2021-06-12 21:17:55 GMT 29.357098 39.291901 35,000 101 497 64
2021-06-12 21:17:12 GMT 29.376480 39.180099 35,025 101 497 0
2021-06-12 21:16:49 GMT 29.386826 39.120415 35,025 101 498 0
2021-06-12 21:16:45 GMT 29.388660 39.109604 35,000 100 498 64
2021-06-12 21:16:35 GMT 29.392757 39.085533 35,000 100 498 0
2021-06-12 21:16:25 GMT 29.397226 39.059467 35,025 101 497 0
2021-06-12 21:16:15 GMT 29.401703 39.033104 35,025 100 496 0
2021-06-12 21:16:06 GMT 29.405886 39.008251 35,025 100 495 0
2021-06-12 21:15:56 GMT 29.410263 38.982395 35,025 100 495 0
2021-06-12 21:15:44 GMT 29.415573 38.951180 35,025 100 495 0
2021-06-12 21:15:36 GMT 29.419006 38.930740 35,025 100 495 0
2021-06-12 21:15:15 GMT 29.427391 38.881153 35,025 100 494 0
2021-06-12 21:15:14 GMT 29.427856 38.878353 35,025 100 493 0
2021-06-12 21:15:03 GMT 29.432785 38.849293 35,000 100 493 64
2021-06-12 21:14:16 GMT 29.452927 38.729397 35,000 100 492 0
2021-06-12 21:14:12 GMT 29.454987 38.717247 35,025 100 492 0
2021-06-12 21:14:04 GMT 29.458443 38.696812 35,000 100 492 0
2021-06-12 21:13:53 GMT 29.462952 38.669975 35,000 100 492 0
2021-06-12 21:13:43 GMT 29.467287 38.644249 35,000 100 492 0
2021-06-12 21:13:31 GMT 29.472502 38.613388 35,000 100 492 0
2021-06-12 21:13:14 GMT 29.480072 38.568932 35,000 101 492 0
2021-06-12 21:13:11 GMT 29.481400 38.561218 35,000 101 492 0
2021-06-12 21:13:03 GMT 29.484932 38.540630 35,000 101 492 0
2021-06-12 21:12:54 GMT 29.489027 38.517044 35,000 101 492 0
2021-06-12 21:12:44 GMT 29.493496 38.491623 35,000 101 492 -64
2021-06-12 21:12:34 GMT 29.497650 38.465351 35,025 98 494 0
2021-06-12 21:12:24 GMT 29.500153 38.439709 35,025 94 498 -64
2021-06-12 21:12:14 GMT 29.501177 38.412350 35,025 90 502 0
2021-06-12 21:12:04 GMT 29.500340 38.385639 35,025 85 506 0
2021-06-12 21:11:53 GMT 29.497559 38.359028 35,000 79 510 64
2021-06-12 21:11:43 GMT 29.493076 38.332485 35,000 78 513 -64
2021-06-12 21:11:33 GMT 29.488358 38.305416 35,000 78 512 0
2021-06-12 21:11:23 GMT 29.483673 38.278469 35,000 78 512 0
2021-06-12 21:11:13 GMT 29.478973 38.251595 35,000 78 514 0
2021-06-12 21:11:03 GMT 29.474409 38.225368 35,000 78 513 0
2021-06-12 21:10:53 GMT 29.469772 38.198143 35,000 79 513 0
2021-06-12 21:10:43 GMT 29.465424 38.171310 35,000 80 512 -64
2021-06-12 21:10:32 GMT 29.462912 38.142540 35,025 90 504 -64
2021-06-12 21:10:23 GMT 29.464417 38.117435 35,000 99 496 128
2021-06-12 21:10:13 GMT 29.468777 38.091644 35,000 101 494 0
2021-06-12 21:10:02 GMT 29.473759 38.063641 35,000 101 495 0
2021-06-12 21:09:39 GMT 29.484232 38.005424 35,000 101 495 -64
2021-06-12 21:09:33 GMT 29.487259 37.989349 35,000 103 491 256
2021-06-12 21:09:23 GMT 29.492844 37.962826 34,875 103 491 896
2021-06-12 21:09:12 GMT 29.498339 37.936436 34,700 103 492 960
2021-06-12 21:09:03 GMT 29.503372 37.912392 34,550 103 493 832
2021-06-12 21:08:52 GMT 29.508911 37.886089 34,425 103 493 832
2021-06-12 21:08:43 GMT 29.513979 37.861958 34,300 103 493 768
2021-06-12 21:08:33 GMT 29.519485 37.835541 34,150 103 494 768
2021-06-12 21:08:22 GMT 29.524979 37.809132 34,000 103 495 1024
2021-06-12 21:08:11 GMT 29.530380 37.783039 33,775 103 497 1472
2021-06-12 21:08:02 GMT 29.535393 37.758823 33,525 103 500 1600
2021-06-12 21:07:51 GMT 29.541260 37.730175 33,225 103 504 1600
2021-06-12 21:07:42 GMT 29.546379 37.705456 32,975 103 507 1472
2021-06-12 21:07:32 GMT 29.551733 37.679173 32,750 103 509 1408
2021-06-12 21:07:22 GMT 29.557251 37.652260 32,525 103 511 1152
2021-06-12 21:07:12 GMT 29.562836 37.625217 32,325 103 512 1024
2021-06-12 21:07:02 GMT 29.568375 37.598015 32,200 103 511 768
2021-06-12 21:06:51 GMT 29.573566 37.572540 32,075 103 510 576
2021-06-12 21:06:41 GMT 29.579105 37.545563 31,925 103 510 1024
2021-06-12 21:06:31 GMT 29.584579 37.518681 31,725 103 510 1024
2021-06-12 21:06:21 GMT 29.590027 37.492111 31,575 103 510 960
2021-06-12 21:06:11 GMT 29.595400 37.465801 31,425 103 510 640
2021-06-12 21:06:01 GMT 29.601032 37.438122 31,300 103 509 704
2021-06-12 21:05:51 GMT 29.606415 37.411774 31,175 103 508 1024
2021-06-12 21:05:41 GMT 29.611692 37.385883 31,075 103 506 192
2021-06-12 21:05:31 GMT 29.616999 37.359764 31,025 103 504 384
2021-06-12 21:05:21 GMT 29.622307 37.333588 31,000 102 502 0
2021-06-12 21:05:03 GMT 29.631638 37.287598 31,000 103 502 -64
2021-06-12 21:05:00 GMT 29.632780 37.282051 31,000 103 502 0
2021-06-12 21:04:48 GMT 29.638962 37.251629 31,000 102 502 0
2021-06-12 21:04:40 GMT 29.643356 37.229656 31,000 103 505 0
2021-06-12 21:04:29 GMT 29.648842 37.202454 31,025 102 505 0
2021-06-12 21:04:20 GMT 29.654068 37.176414 31,000 102 506 0
2021-06-12 21:04:10 GMT 29.659103 37.151325 31,000 102 508 64
2021-06-12 21:04:00 GMT 29.664576 37.123989 31,000 102 509 -64
2021-06-12 21:03:50 GMT 29.669836 37.097599 31,025 102 509 -64
2021-06-12 21:03:40 GMT 29.674942 37.072098 31,025 103 509 64
2021-06-12 21:03:30 GMT 29.680357 37.045090 31,000 102 509 64
2021-06-12 21:03:20 GMT 29.685663 37.018593 31,000 102 509 -64
2021-06-12 21:03:10 GMT 29.691065 36.991829 31,000 103 510 0
2021-06-12 21:03:00 GMT 29.696278 36.965870 31,000 102 508 0
2021-06-12 21:02:50 GMT 29.701492 36.939751 31,000 102 507 0
2021-06-12 21:02:40 GMT 29.706659 36.913849 31,000 102 508 0
2021-06-12 21:02:30 GMT 29.711929 36.887444 31,000 102 508 0
2021-06-12 21:02:19 GMT 29.717459 36.859509 31,000 102 508 0
2021-06-12 21:02:10 GMT 29.722458 36.834305 31,000 102 509 0
2021-06-12 21:02:00 GMT 29.727747 36.807701 31,000 102 509 0
2021-06-12 21:01:49 GMT 29.733215 36.780273 31,000 102 509 0
2021-06-12 21:01:40 GMT 29.738314 36.754330 31,000 101 511 0
2021-06-12 21:01:30 GMT 29.742317 36.727242 31,000 97 515 64
2021-06-12 21:01:20 GMT 29.744659 36.700039 31,000 93 518 64
2021-06-12 21:01:09 GMT 29.745296 36.670910 31,000 89 523 0
2021-06-12 21:01:00 GMT 29.744247 36.644737 31,000 85 525 -64
2021-06-12 21:00:50 GMT 29.741455 36.616798 31,000 80 528 64
2021-06-12 21:00:40 GMT 29.737106 36.589172 31,000 79 528 0
2021-06-12 21:00:30 GMT 29.732712 36.562130 31,000 79 529 0
2021-06-12 21:00:20 GMT 29.728119 36.534065 31,000 79 529 0
2021-06-12 21:00:10 GMT 29.723694 36.506935 31,000 79 530 0
2021-06-12 21:00:00 GMT 29.719088 36.478973 31,000 79 530 0
2021-06-12 20:59:50 GMT 29.714493 36.450947 31,000 79 531 0
2021-06-12 20:59:40 GMT 29.709824 36.422531 31,025 79 531 -64
2021-06-12 20:59:29 GMT 29.705215 36.394474 31,025 79 531 0
2021-06-12 20:59:20 GMT 29.700840 36.367332 31,025 79 531 -64
2021-06-12 20:59:10 GMT 29.696182 36.338654 31,025 79 531 0
2021-06-12 20:59:00 GMT 29.691696 36.310925 31,025 79 531 0
2021-06-12 20:58:49 GMT 29.687246 36.283318 31,025 79 531 0
2021-06-12 20:58:38 GMT 29.682266 36.252823 31,025 79 532 0
2021-06-12 20:58:29 GMT 29.678055 36.226624 31,025 79 532 0
2021-06-12 20:58:19 GMT 29.673422 36.197960 31,025 79 533 -64
2021-06-12 20:58:09 GMT 29.669044 36.170441 31,025 79 533 0
2021-06-12 20:57:59 GMT 29.664621 36.142433 31,025 79 533 0
2021-06-12 20:57:48 GMT 29.660013 36.112816 31,025 79 533 0
2021-06-12 20:57:39 GMT 29.655777 36.085995 31,025 79 533 64
2021-06-12 20:57:29 GMT 29.651541 36.058746 31,025 79 533 64
2021-06-12 20:57:19 GMT 29.647064 36.030506 31,025 79 534 0
2021-06-12 20:57:09 GMT 29.642624 36.002357 31,025 79 534 0
2021-06-12 20:56:58 GMT 29.638000 35.973991 31,025 79 534 0
2021-06-12 20:56:48 GMT 29.633387 35.945866 31,025 79 534 0
2021-06-12 20:56:38 GMT 29.628822 35.918240 31,025 79 534 0
2021-06-12 20:56:28 GMT 29.624262 35.890289 31,025 79 535 0
2021-06-12 20:56:17 GMT 29.619513 35.861099 31,025 79 535 0
2021-06-12 20:56:08 GMT 29.615185 35.834602 31,025 79 535 -64
2021-06-12 20:55:57 GMT 29.609528 35.804020 31,025 76 537 0
2021-06-12 20:55:47 GMT 29.603256 35.776608 31,025 74 537 0
2021-06-12 20:55:38 GMT 29.597120 35.750751 31,025 74 537 0
2021-06-12 20:55:27 GMT 29.590439 35.722416 31,025 74 537 0
2021-06-12 20:55:18 GMT 29.583994 35.695389 31,025 74 537 0
2021-06-12 20:55:08 GMT 29.577576 35.668278 31,025 74 538 0
2021-06-12 20:54:57 GMT 29.570114 35.637112 31,025 74 538 0
2021-06-12 20:54:48 GMT 29.564209 35.612289 31,025 74 538 0
2021-06-12 20:54:38 GMT 29.557617 35.584663 31,025 74 539 0
2021-06-12 20:54:28 GMT 29.551163 35.557568 31,025 74 538 0
2021-06-12 20:54:17 GMT 29.544067 35.527515 31,025 74 538 0
2021-06-12 20:54:08 GMT 29.538048 35.502048 31,025 75 538 0
2021-06-12 20:53:58 GMT 29.531525 35.473957 31,025 75 538 0
2021-06-12 20:53:47 GMT 29.525024 35.445805 31,025 75 538 0
2021-06-12 20:53:37 GMT 29.518726 35.418682 31,000 75 538 64
2021-06-12 20:53:27 GMT 29.512444 35.391594 31,000 75 538 0
2021-06-12 20:53:17 GMT 29.505878 35.363319 31,000 75 538 -64
2021-06-12 20:53:07 GMT 29.499298 35.334934 31,025 75 538 0
2021-06-12 20:52:57 GMT 29.492889 35.307419 31,025 75 539 0
2021-06-12 20:52:47 GMT 29.486326 35.279202 31,000 75 538 0
2021-06-12 20:52:37 GMT 29.479950 35.251789 31,000 75 538 0
2021-06-12 20:52:27 GMT 29.467194 35.196751 31,025 75 539 0
2021-06-12 20:52:17 GMT 29.467194 35.196751 31,025 75 539 0
2021-06-12 20:52:06 GMT 29.460526 35.168030 31,025 75 540 0
2021-06-12 20:51:57 GMT 29.454163 35.140720 31,000 75 541 0
2021-06-12 20:51:47 GMT 29.447641 35.112896 31,000 75 542 0
2021-06-12 20:51:36 GMT 29.440706 35.083279 31,025 74 542 -64
2021-06-12 20:51:27 GMT 29.434513 35.057049 31,025 74 543 0
2021-06-12 20:51:16 GMT 29.428345 35.028851 31,025 77 541 0
2021-06-12 20:51:06 GMT 29.423807 34.999371 31,000 82 539 0
2021-06-12 20:50:55 GMT 29.421387 34.970291 31,025 86 536 0
2021-06-12 20:50:46 GMT 29.420929 34.942703 31,025 91 533 0
2021-06-12 20:50:35 GMT 29.422504 34.912502 31,025 95 529 0
2021-06-12 20:50:01 GMT 29.434570 34.819054 31,000 98 526 0
2021-06-12 20:49:55 GMT 29.436842 34.801723 31,000 98 526 0
2021-06-12 20:49:49 GMT 29.439011 34.785301 31,000 98 526 64
2021-06-12 20:49:45 GMT 29.440659 34.772968 31,000 98 526 64
2021-06-12 20:49:40 GMT 29.442335 34.760258 31,000 98 526 64
2021-06-12 20:49:36 GMT 29.443966 34.747925 31,000 98 526 0
2021-06-12 20:49:31 GMT 29.445595 34.735538 31,000 98 526 -64
2021-06-12 20:49:25 GMT 29.447800 34.718910 31,000 98 526 -64
2021-06-12 20:49:21 GMT 29.449310 34.707447 31,025 98 526 -64
2021-06-12 20:49:16 GMT 29.451321 34.692348 31,025 98 526 0
2021-06-12 20:49:05 GMT 29.454849 34.665459 31,025 98 525 0
2021-06-12 20:48:55 GMT 29.458488 34.638115 31,025 98 525 0
2021-06-12 20:48:48 GMT 29.461258 34.617180 31,025 98 525 0
2021-06-12 20:48:45 GMT 29.462265 34.609417 31,025 98 525 0
2021-06-12 20:48:41 GMT 29.464096 34.595631 31,025 98 525 0
2021-06-12 20:48:35 GMT 29.465937 34.581406 31,025 98 525 0
2021-06-12 20:48:31 GMT 29.467661 34.567997 31,025 98 525 0
2021-06-12 20:48:25 GMT 29.469429 34.554531 31,025 98 525 0
2021-06-12 20:48:21 GMT 29.471291 34.540424 31,025 98 524 -64
2021-06-12 20:48:15 GMT 29.473206 34.525856 31,025 98 524 0
2021-06-12 20:48:11 GMT 29.474503 34.515759 31,025 98 524 0
2021-06-12 20:48:04 GMT 29.476925 34.497341 31,025 98 524 64
2021-06-12 20:48:00 GMT 29.478287 34.486877 31,000 98 524 64
2021-06-12 20:47:55 GMT 29.480509 34.469875 31,000 98 524 64
2021-06-12 20:47:49 GMT 29.482277 34.456409 31,000 98 525 0
2021-06-12 20:47:45 GMT 29.484055 34.442616 31,000 98 525 0
2021-06-12 20:47:40 GMT 29.485474 34.431995 31,000 98 525 0
2021-06-12 20:47:34 GMT 29.487762 34.414463 31,000 98 525 -64
2021-06-12 20:47:31 GMT 29.488953 34.405167 31,000 98 525 0
2021-06-12 20:47:24 GMT 29.491447 34.386078 31,025 98 525 0
2021-06-12 20:47:21 GMT 29.492432 34.378174 31,000 98 525 0
2021-06-12 20:47:13 GMT 29.495041 34.358051 31,000 98 525 0
2021-06-12 20:47:11 GMT 29.496094 34.349651 31,025 98 525 0
2021-06-12 20:47:06 GMT 29.497919 34.335667 31,025 98 525 0
2021-06-12 20:47:04 GMT 29.498428 34.331482 31,025 98 525 0
2021-06-12 20:47:00 GMT 29.499985 34.319229 31,025 98 525 0
2021-06-12 20:46:54 GMT 29.501877 34.304485 31,025 98 525 0
2021-06-12 20:46:51 GMT 29.503098 34.294987 31,025 98 525 0
2021-06-12 20:46:41 GMT 29.506809 34.265820 31,025 98 524 0
2021-06-12 20:46:38 GMT 29.507858 34.257587 31,025 98 524 0
2021-06-12 20:46:34 GMT 29.508865 34.249508 31,025 98 524 0
2021-06-12 20:46:29 GMT 29.510906 34.233345 31,000 98 524 0
2021-06-12 20:46:24 GMT 29.512390 34.221832 31,000 98 524 64
2021-06-12 20:46:19 GMT 29.514257 34.207115 31,000 98 524 0
2021-06-12 20:46:13 GMT 29.516073 34.192631 31,000 98 524 -64
2021-06-12 20:46:08 GMT 29.517975 34.177410 31,025 98 523 -64
2021-06-12 20:46:04 GMT 29.519577 34.165104 31,025 98 523 0
2021-06-12 20:45:56 GMT 29.521957 34.145985 31,025 98 523 0
2021-06-12 20:45:54 GMT 29.523010 34.137691 31,025 98 522 0
2021-06-12 20:45:50 GMT 29.524267 34.127895 31,025 98 522 0
2021-06-12 20:45:44 GMT 29.526548 34.109802 31,025 98 522 -64
2021-06-12 20:45:39 GMT 29.530041 34.082230 31,025 98 521 0
2021-06-12 20:45:34 GMT 29.530041 34.082230 31,025 98 521 0
2021-06-12 20:45:28 GMT 29.532166 34.065540 31,025 98 521 -64
2021-06-12 20:45:24 GMT 29.533485 34.055141 31,025 98 521 -64
2021-06-12 20:45:18 GMT 29.535486 34.039413 31,025 98 520 0
2021-06-12 20:45:14 GMT 29.536928 34.027996 31,025 98 517 64
2021-06-12 20:45:10 GMT 29.538326 34.017174 31,025 98 514 0
2021-06-12 20:45:04 GMT 29.540421 34.000908 31,025 98 513 64
2021-06-12 20:44:58 GMT 29.542097 33.987823 31,025 98 511 64
2021-06-12 20:44:53 GMT 29.544191 33.971180 31,025 98 508 64
2021-06-12 20:44:50 GMT 29.545074 33.964127 31,025 98 507 64
2021-06-12 20:44:44 GMT 29.547318 33.946590 31,025 98 505 64
2021-06-12 20:44:38 GMT 29.550709 33.919533 31,000 98 504 64
2021-06-12 20:44:33 GMT 29.550709 33.919533 31,000 98 504 64
2021-06-12 20:44:29 GMT 29.552032 33.909142 31,000 98 504 64
2021-06-12 20:44:21 GMT 29.554945 33.885983 31,000 98 504 64
2021-06-12 20:44:18 GMT 29.557785 33.863579 31,025 98 504 -64
2021-06-12 20:44:10 GMT 29.558304 33.859547 31,025 98 504 -64
2021-06-12 20:44:08 GMT 29.559275 33.852055 31,025 98 504 0
2021-06-12 20:43:58 GMT 29.562241 33.828331 31,000 98 505 0
2021-06-12 20:43:48 GMT 29.565605 33.800838 31,025 98 507 0
2021-06-12 20:43:39 GMT 29.568865 33.774506 31,025 97 510 -192
2021-06-12 20:43:29 GMT 29.571991 33.749420 31,025 97 513 0
2021-06-12 20:43:20 GMT 29.574829 33.726074 30,975 97 515 1216
2021-06-12 20:43:18 GMT 29.575476 33.720757 30,950 97 515 1408
2021-06-12 20:43:08 GMT 29.578827 33.693508 30,725 98 517 1472
2021-06-12 20:42:58 GMT 29.582132 33.666309 30,475 97 518 1408
2021-06-12 20:42:49 GMT 29.585403 33.639713 30,250 98 520 1216
2021-06-12 20:42:39 GMT 29.588654 33.613251 30,050 97 520 1152
2021-06-12 20:42:29 GMT 29.592133 33.585152 29,875 98 521 1280
2021-06-12 20:42:21 GMT 29.594559 33.565453 29,725 98 521 1216
2021-06-12 20:42:19 GMT 29.595491 33.557686 29,650 98 521 1152
2021-06-12 20:42:13 GMT 29.597446 33.542122 29,550 97 520 1152
2021-06-12 20:42:06 GMT 29.599728 33.523434 29,425 97 520 1152
2021-06-12 20:42:00 GMT 29.601685 33.507603 29,325 97 520 1024
2021-06-12 20:41:57 GMT 29.602755 33.498608 29,275 98 520 832
2021-06-12 20:41:48 GMT 29.605728 33.474602 29,125 98 520 1152
2021-06-12 20:41:39 GMT 29.609070 33.447559 28,925 97 520 1088
2021-06-12 20:41:28 GMT 29.612345 33.420841 28,775 97 518 960
2021-06-12 20:41:18 GMT 29.615662 33.393314 28,625 97 517 768
2021-06-12 20:41:08 GMT 29.618908 33.366501 28,525 97 515 640
2021-06-12 20:40:58 GMT 29.622307 33.338497 28,400 97 513 576
2021-06-12 20:40:48 GMT 29.625549 33.311710 28,275 97 510 1088
2021-06-12 20:40:37 GMT 29.629028 33.282711 28,050 97 510 1408
2021-06-12 20:40:27 GMT 29.632082 33.257233 27,850 97 510 1024
2021-06-12 20:40:18 GMT 29.635208 33.231422 27,675 97 509 1088
2021-06-12 20:40:08 GMT 29.638412 33.204273 27,500 97 507 832
2021-06-12 20:39:58 GMT 29.641617 33.177601 27,350 97 505 1216
2021-06-12 20:39:47 GMT 29.644913 33.149765 27,150 97 504 960
2021-06-12 20:39:37 GMT 29.648209 33.122089 26,950 97 502 1216
2021-06-12 20:39:28 GMT 29.651093 33.097580 26,800 97 501 832
2021-06-12 20:39:16 GMT 29.654709 33.067104 26,600 97 499 1152
2021-06-12 20:39:07 GMT 29.657499 33.043213 26,450 97 497 1152
2021-06-12 20:38:58 GMT 29.660339 33.019196 26,275 97 495 1088
2021-06-12 20:38:48 GMT 29.663544 32.992313 26,050 97 494 1216
2021-06-12 20:38:37 GMT 29.666748 32.964901 25,875 97 492 1024
2021-06-12 20:38:28 GMT 29.669649 32.940456 25,675 97 490 1216
2021-06-12 20:38:18 GMT 29.672628 32.915039 25,525 97 487 768
2021-06-12 20:38:07 GMT 29.675795 32.888058 25,350 97 484 896
2021-06-12 20:37:58 GMT 29.678604 32.864334 25,200 97 482 1344
2021-06-12 20:37:47 GMT 29.682037 32.835232 25,000 97 479 832
2021-06-12 20:37:37 GMT 29.684738 32.811989 24,825 97 477 1216
2021-06-12 20:37:27 GMT 29.687805 32.786106 24,575 97 476 1472
2021-06-12 20:37:17 GMT 29.690598 32.761875 24,375 97 474 1280
2021-06-12 20:37:06 GMT 29.693848 32.734295 24,125 97 472 1344
2021-06-12 20:37:05 GMT 29.694077 32.731968 24,100 97 472 1344
2021-06-12 20:36:55 GMT 29.697069 32.706192 23,875 97 469 1408
2021-06-12 20:36:46 GMT 29.699661 32.684116 23,675 97 467 1152
2021-06-12 20:36:37 GMT 29.702049 32.663483 23,525 97 465 1280
2021-06-12 20:36:34 GMT 29.703215 32.653469 23,425 97 464 1344
2021-06-12 20:36:24 GMT 29.705681 32.632141 23,250 97 462 1280
2021-06-12 20:36:16 GMT 29.707916 32.612701 23,050 97 459 1536
2021-06-12 20:36:07 GMT 29.710556 32.590309 22,825 97 456 1344
2021-06-12 20:35:56 GMT 29.713549 32.564392 22,550 97 454 1728
2021-06-12 20:35:46 GMT 29.716324 32.540340 22,275 97 453 1600
2021-06-12 20:35:35 GMT 29.719437 32.513615 21,950 97 452 1600

Making use of Plane Finder data

You are free to use the raw flight data, aircraft information and images provided in this report for your own purposes provided the data is correctly attributed to Plane Finder. We ask that you please credit Plane Finder and link to planefinder.net in close proximity to the content.

Optionally one of the following logos (no smaller then 150x24px) can be used and must link to planefinder.net

Embedding the Plane Finder map

You are welcome to embed the Plane Finder playback map on your website to offer visitors a more interactive experience. We suggest using the following HTML code:

<iframe src="//planefinder.net/data/report/FT501-SU-TMI-7700-squawk-2021-06-12/map" width="800" height="600" seamless="seamless"></iframe>

Where our data comes from

Plane Finder has a global network of data feeds and antenna radars that receive data broadcast directly from aircraft. The primary technologies used are ADS-B and MLAT. We also show feeds from the FAA and a FLARM glider feed.

Click here to find out more about the Plane Finder network.

How we collect our data